<?xml version="1.0" encoding="UTF-8" standalone="no" ?>
<gpx xmlns="http://www.topografix.com/GPX/1/1" xmlns:xsi="http://www.w3.org/2001/XMLSchema-instance" xsi:schemaLocation="http://www.topografix.com/GPX/1/1 http://www.topografix.com/GPX/1/1/gpx.xsd" version="1.1" creator="VisuGPX - https://www.visugpx.com">
  <metadata>
    <name>Arville  MARCHE ADEPS 2015 (mars)</name>
    <desc><![CDATA[Marche ADEPS Arville bien sympa à faire ]]></desc>
  </metadata>
  <trk>
    <name><![CDATA[duo choupy & scooby]]></name>
    <cmt><![CDATA[AVG 15° MAX 17° MIN 12°  ]]></cmt>
    <trkseg>
      <trkpt lat="50.03801" lon="5.32414">
        <ele>386</ele>
        <time>2015-01-18T11:57:26Z</time>
      </trkpt>
      <trkpt lat="50.03804" lon="5.3241">
        <ele>386</ele>
        <time>2015-01-18T11:57:31Z</time>
      </trkpt>
      <trkpt lat="50.03806" lon="5.32404">
        <ele>387</ele>
        <time>2015-01-18T11:57:36Z</time>
      </trkpt>
      <trkpt lat="50.03809" lon="5.32397">
        <ele>388</ele>
        <time>2015-01-18T11:57:41Z</time>
      </trkpt>
      <trkpt lat="50.03812" lon="5.32389">
        <ele>388</ele>
        <time>2015-01-18T11:57:46Z</time>
      </trkpt>
      <trkpt lat="50.03816" lon="5.32383">
        <ele>388</ele>
        <time>2015-01-18T11:57:51Z</time>
      </trkpt>
      <trkpt lat="50.03817" lon="5.32379">
        <ele>388</ele>
        <time>2015-01-18T11:57:56Z</time>
      </trkpt>
      <trkpt lat="50.03814" lon="5.32381">
        <ele>389</ele>
        <time>2015-01-18T11:58:01Z</time>
      </trkpt>
      <trkpt lat="50.03812" lon="5.32387">
        <ele>388</ele>
        <time>2015-01-18T11:58:07Z</time>
      </trkpt>
      <trkpt lat="50.03809" lon="5.32392">
        <ele>387</ele>
        <time>2015-01-18T11:58:12Z</time>
      </trkpt>
      <trkpt lat="50.03808" lon="5.32397">
        <ele>387</ele>
        <time>2015-01-18T11:58:18Z</time>
      </trkpt>
      <trkpt lat="50.03808" lon="5.32402">
        <ele>388</ele>
        <time>2015-01-18T11:58:24Z</time>
      </trkpt>
      <trkpt lat="50.03809" lon="5.32407">
        <ele>388</ele>
        <time>2015-01-18T11:58:30Z</time>
      </trkpt>
      <trkpt lat="50.03809" lon="5.3241">
        <ele>387</ele>
        <time>2015-01-18T11:58:36Z</time>
      </trkpt>
      <trkpt lat="50.03806" lon="5.32416">
        <ele>387</ele>
        <time>2015-01-18T11:58:42Z</time>
      </trkpt>
      <trkpt lat="50.03804" lon="5.32419">
        <ele>386</ele>
        <time>2015-01-18T11:58:47Z</time>
      </trkpt>
      <trkpt lat="50.038" lon="5.32416">
        <ele>385</ele>
        <time>2015-01-18T11:58:53Z</time>
      </trkpt>
      <trkpt lat="50.03796" lon="5.32418">
        <ele>386</ele>
        <time>2015-01-18T11:58:58Z</time>
      </trkpt>
      <trkpt lat="50.03793" lon="5.32418">
        <ele>385</ele>
        <time>2015-01-18T11:59:03Z</time>
      </trkpt>
      <trkpt lat="50.0379" lon="5.32416">
        <ele>384</ele>
        <time>2015-01-18T11:59:08Z</time>
      </trkpt>
      <trkpt lat="50.03787" lon="5.32413">
        <ele>383</ele>
        <time>2015-01-18T11:59:13Z</time>
      </trkpt>
      <trkpt lat="50.03785" lon="5.32412">
        <ele>384</ele>
        <time>2015-01-18T11:59:18Z</time>
      </trkpt>
      <trkpt lat="50.03784" lon="5.32408">
        <ele>384</ele>
        <time>2015-01-18T11:59:23Z</time>
      </trkpt>
      <trkpt lat="50.03783" lon="5.32404">
        <ele>384</ele>
        <time>2015-01-18T11:59:28Z</time>
      </trkpt>
      <trkpt lat="50.03783" lon="5.32396">
        <ele>384</ele>
        <time>2015-01-18T11:59:33Z</time>
      </trkpt>
      <trkpt lat="50.03783" lon="5.32386">
        <ele>384</ele>
        <time>2015-01-18T11:59:39Z</time>
      </trkpt>
      <trkpt lat="50.03785" lon="5.32377">
        <ele>384</ele>
        <time>2015-01-18T11:59:44Z</time>
      </trkpt>
      <trkpt lat="50.03788" lon="5.32367">
        <ele>384</ele>
        <time>2015-01-18T11:59:49Z</time>
      </trkpt>
      <trkpt lat="50.0379" lon="5.32357">
        <ele>385</ele>
        <time>2015-01-18T11:59:55Z</time>
      </trkpt>
      <trkpt lat="50.03791" lon="5.32348">
        <ele>385</ele>
        <time>2015-01-18T12:00:00Z</time>
      </trkpt>
      <trkpt lat="50.03791" lon="5.32338">
        <ele>385</ele>
        <time>2015-01-18T12:00:06Z</time>
      </trkpt>
      <trkpt lat="50.03791" lon="5.32326">
        <ele>384</ele>
        <time>2015-01-18T12:00:12Z</time>
      </trkpt>
      <trkpt lat="50.03791" lon="5.32317">
        <ele>384</ele>
        <time>2015-01-18T12:00:17Z</time>
      </trkpt>
      <trkpt lat="50.03791" lon="5.32304">
        <ele>384</ele>
        <time>2015-01-18T12:00:23Z</time>
      </trkpt>
      <trkpt lat="50.03791" lon="5.32295">
        <ele>385</ele>
        <time>2015-01-18T12:00:28Z</time>
      </trkpt>
      <trkpt lat="50.03791" lon="5.32289">
        <ele>384</ele>
        <time>2015-01-18T12:00:34Z</time>
      </trkpt>
      <trkpt lat="50.03791" lon="5.32283">
        <ele>385</ele>
        <time>2015-01-18T12:00:39Z</time>
      </trkpt>
      <trkpt lat="50.03793" lon="5.32275">
        <ele>386</ele>
        <time>2015-01-18T12:00:45Z</time>
      </trkpt>
      <trkpt lat="50.03795" lon="5.32266">
        <ele>386</ele>
        <time>2015-01-18T12:00:51Z</time>
      </trkpt>
      <trkpt lat="50.03797" lon="5.32259">
        <ele>386</ele>
        <time>2015-01-18T12:00:56Z</time>
      </trkpt>
      <trkpt lat="50.03799" lon="5.32249">
        <ele>387</ele>
        <time>2015-01-18T12:01:02Z</time>
      </trkpt>
      <trkpt lat="50.03801" lon="5.32242">
        <ele>387</ele>
        <time>2015-01-18T12:01:07Z</time>
      </trkpt>
      <trkpt lat="50.03801" lon="5.32238">
        <ele>386</ele>
        <time>2015-01-18T12:01:13Z</time>
      </trkpt>
      <trkpt lat="50.03801" lon="5.32235">
        <ele>386</ele>
        <time>2015-01-18T12:01:18Z</time>
      </trkpt>
      <trkpt lat="50.03803" lon="5.32227">
        <ele>386</ele>
        <time>2015-01-18T12:01:24Z</time>
      </trkpt>
      <trkpt lat="50.03802" lon="5.32217">
        <ele>387</ele>
        <time>2015-01-18T12:01:30Z</time>
      </trkpt>
      <trkpt lat="50.03802" lon="5.32209">
        <ele>387</ele>
        <time>2015-01-18T12:01:36Z</time>
      </trkpt>
      <trkpt lat="50.03804" lon="5.32203">
        <ele>386</ele>
        <time>2015-01-18T12:01:41Z</time>
      </trkpt>
      <trkpt lat="50.03804" lon="5.32197">
        <ele>388</ele>
        <time>2015-01-18T12:01:46Z</time>
      </trkpt>
      <trkpt lat="50.03804" lon="5.32189">
        <ele>388</ele>
        <time>2015-01-18T12:01:52Z</time>
      </trkpt>
      <trkpt lat="50.03806" lon="5.32181">
        <ele>388</ele>
        <time>2015-01-18T12:01:57Z</time>
      </trkpt>
      <trkpt lat="50.03808" lon="5.32171">
        <ele>389</ele>
        <time>2015-01-18T12:02:03Z</time>
      </trkpt>
      <trkpt lat="50.03807" lon="5.32163">
        <ele>389</ele>
        <time>2015-01-18T12:02:08Z</time>
      </trkpt>
      <trkpt lat="50.03807" lon="5.32154">
        <ele>389</ele>
        <time>2015-01-18T12:02:13Z</time>
      </trkpt>
      <trkpt lat="50.0381" lon="5.32148">
        <ele>390</ele>
        <time>2015-01-18T12:02:18Z</time>
      </trkpt>
      <trkpt lat="50.03811" lon="5.32143">
        <ele>390</ele>
        <time>2015-01-18T12:02:23Z</time>
      </trkpt>
      <trkpt lat="50.03812" lon="5.32134">
        <ele>389</ele>
        <time>2015-01-18T12:02:29Z</time>
      </trkpt>
      <trkpt lat="50.03813" lon="5.32125">
        <ele>390</ele>
        <time>2015-01-18T12:02:34Z</time>
      </trkpt>
      <trkpt lat="50.03813" lon="5.32115">
        <ele>390</ele>
        <time>2015-01-18T12:02:39Z</time>
      </trkpt>
      <trkpt lat="50.03813" lon="5.32106">
        <ele>391</ele>
        <time>2015-01-18T12:02:44Z</time>
      </trkpt>
      <trkpt lat="50.03814" lon="5.32095">
        <ele>391</ele>
        <time>2015-01-18T12:02:50Z</time>
      </trkpt>
      <trkpt lat="50.03815" lon="5.32086">
        <ele>390</ele>
        <time>2015-01-18T12:02:55Z</time>
      </trkpt>
      <trkpt lat="50.03815" lon="5.32076">
        <ele>390</ele>
        <time>2015-01-18T12:03:01Z</time>
      </trkpt>
      <trkpt lat="50.03817" lon="5.32066">
        <ele>391</ele>
        <time>2015-01-18T12:03:07Z</time>
      </trkpt>
      <trkpt lat="50.03818" lon="5.32058">
        <ele>391</ele>
        <time>2015-01-18T12:03:12Z</time>
      </trkpt>
      <trkpt lat="50.03821" lon="5.32048">
        <ele>392</ele>
        <time>2015-01-18T12:03:18Z</time>
      </trkpt>
      <trkpt lat="50.03822" lon="5.32039">
        <ele>392</ele>
        <time>2015-01-18T12:03:24Z</time>
      </trkpt>
      <trkpt lat="50.03823" lon="5.3203">
        <ele>392</ele>
        <time>2015-01-18T12:03:30Z</time>
      </trkpt>
      <trkpt lat="50.03825" lon="5.3202">
        <ele>392</ele>
        <time>2015-01-18T12:03:36Z</time>
      </trkpt>
      <trkpt lat="50.03826" lon="5.32011">
        <ele>392</ele>
        <time>2015-01-18T12:03:41Z</time>
      </trkpt>
      <trkpt lat="50.03827" lon="5.32">
        <ele>393</ele>
        <time>2015-01-18T12:03:47Z</time>
      </trkpt>
      <trkpt lat="50.03829" lon="5.31991">
        <ele>393</ele>
        <time>2015-01-18T12:03:52Z</time>
      </trkpt>
      <trkpt lat="50.03831" lon="5.31983">
        <ele>393</ele>
        <time>2015-01-18T12:03:57Z</time>
      </trkpt>
      <trkpt lat="50.03833" lon="5.31974">
        <ele>393</ele>
        <time>2015-01-18T12:04:03Z</time>
      </trkpt>
      <trkpt lat="50.03835" lon="5.31966">
        <ele>393</ele>
        <time>2015-01-18T12:04:08Z</time>
      </trkpt>
      <trkpt lat="50.03836" lon="5.31957">
        <ele>393</ele>
        <time>2015-01-18T12:04:13Z</time>
      </trkpt>
      <trkpt lat="50.03838" lon="5.31947">
        <ele>393</ele>
        <time>2015-01-18T12:04:19Z</time>
      </trkpt>
      <trkpt lat="50.0384" lon="5.31939">
        <ele>393</ele>
        <time>2015-01-18T12:04:24Z</time>
      </trkpt>
      <trkpt lat="50.03842" lon="5.31928">
        <ele>393</ele>
        <time>2015-01-18T12:04:30Z</time>
      </trkpt>
      <trkpt lat="50.03844" lon="5.3192">
        <ele>393</ele>
        <time>2015-01-18T12:04:35Z</time>
      </trkpt>
      <trkpt lat="50.03847" lon="5.31911">
        <ele>393</ele>
        <time>2015-01-18T12:04:41Z</time>
      </trkpt>
      <trkpt lat="50.03851" lon="5.31901">
        <ele>393</ele>
        <time>2015-01-18T12:04:47Z</time>
      </trkpt>
      <trkpt lat="50.03853" lon="5.31894">
        <ele>393</ele>
        <time>2015-01-18T12:04:52Z</time>
      </trkpt>
      <trkpt lat="50.03855" lon="5.31888">
        <ele>393</ele>
        <time>2015-01-18T12:04:57Z</time>
      </trkpt>
      <trkpt lat="50.03856" lon="5.31884">
        <ele>393</ele>
        <time>2015-01-18T12:05:02Z</time>
      </trkpt>
      <trkpt lat="50.03859" lon="5.31874">
        <ele>393</ele>
        <time>2015-01-18T12:05:08Z</time>
      </trkpt>
      <trkpt lat="50.03862" lon="5.31864">
        <ele>393</ele>
        <time>2015-01-18T12:05:14Z</time>
      </trkpt>
      <trkpt lat="50.03866" lon="5.31859">
        <ele>394</ele>
        <time>2015-01-18T12:05:19Z</time>
      </trkpt>
      <trkpt lat="50.03871" lon="5.3185">
        <ele>394</ele>
        <time>2015-01-18T12:05:25Z</time>
      </trkpt>
      <trkpt lat="50.03874" lon="5.31844">
        <ele>394</ele>
        <time>2015-01-18T12:05:30Z</time>
      </trkpt>
      <trkpt lat="50.03877" lon="5.31838">
        <ele>393</ele>
        <time>2015-01-18T12:05:36Z</time>
      </trkpt>
      <trkpt lat="50.03878" lon="5.31832">
        <ele>393</ele>
        <time>2015-01-18T12:05:41Z</time>
      </trkpt>
      <trkpt lat="50.0388" lon="5.31826">
        <ele>393</ele>
        <time>2015-01-18T12:05:46Z</time>
      </trkpt>
      <trkpt lat="50.03883" lon="5.3182">
        <ele>393</ele>
        <time>2015-01-18T12:05:52Z</time>
      </trkpt>
      <trkpt lat="50.03886" lon="5.31813">
        <ele>393</ele>
        <time>2015-01-18T12:05:57Z</time>
      </trkpt>
      <trkpt lat="50.03888" lon="5.31807">
        <ele>392</ele>
        <time>2015-01-18T12:06:02Z</time>
      </trkpt>
      <trkpt lat="50.03891" lon="5.31801">
        <ele>392</ele>
        <time>2015-01-18T12:06:07Z</time>
      </trkpt>
      <trkpt lat="50.03895" lon="5.31793">
        <ele>392</ele>
        <time>2015-01-18T12:06:13Z</time>
      </trkpt>
      <trkpt lat="50.03898" lon="5.31785">
        <ele>392</ele>
        <time>2015-01-18T12:06:19Z</time>
      </trkpt>
      <trkpt lat="50.03901" lon="5.31779">
        <ele>392</ele>
        <time>2015-01-18T12:06:24Z</time>
      </trkpt>
      <trkpt lat="50.03902" lon="5.31771">
        <ele>392</ele>
        <time>2015-01-18T12:06:29Z</time>
      </trkpt>
      <trkpt lat="50.03906" lon="5.31761">
        <ele>391</ele>
        <time>2015-01-18T12:06:35Z</time>
      </trkpt>
      <trkpt lat="50.03907" lon="5.31758">
        <ele>390</ele>
        <time>2015-01-18T12:06:41Z</time>
      </trkpt>
      <trkpt lat="50.03907" lon="5.31753">
        <ele>391</ele>
        <time>2015-01-18T12:06:46Z</time>
      </trkpt>
      <trkpt lat="50.03912" lon="5.31746">
        <ele>391</ele>
        <time>2015-01-18T12:06:51Z</time>
      </trkpt>
      <trkpt lat="50.03917" lon="5.31737">
        <ele>391</ele>
        <time>2015-01-18T12:06:57Z</time>
      </trkpt>
      <trkpt lat="50.03921" lon="5.31729">
        <ele>391</ele>
        <time>2015-01-18T12:07:02Z</time>
      </trkpt>
      <trkpt lat="50.03925" lon="5.3172">
        <ele>390</ele>
        <time>2015-01-18T12:07:08Z</time>
      </trkpt>
      <trkpt lat="50.03927" lon="5.31713">
        <ele>390</ele>
        <time>2015-01-18T12:07:13Z</time>
      </trkpt>
      <trkpt lat="50.0393" lon="5.31705">
        <ele>389</ele>
        <time>2015-01-18T12:07:19Z</time>
      </trkpt>
      <trkpt lat="50.03932" lon="5.31698">
        <ele>389</ele>
        <time>2015-01-18T12:07:24Z</time>
      </trkpt>
      <trkpt lat="50.03935" lon="5.31689">
        <ele>389</ele>
        <time>2015-01-18T12:07:30Z</time>
      </trkpt>
      <trkpt lat="50.03937" lon="5.31681">
        <ele>388</ele>
        <time>2015-01-18T12:07:35Z</time>
      </trkpt>
      <trkpt lat="50.03941" lon="5.3167">
        <ele>388</ele>
        <time>2015-01-18T12:07:41Z</time>
      </trkpt>
      <trkpt lat="50.03944" lon="5.31662">
        <ele>388</ele>
        <time>2015-01-18T12:07:46Z</time>
      </trkpt>
      <trkpt lat="50.03947" lon="5.3165">
        <ele>388</ele>
        <time>2015-01-18T12:07:52Z</time>
      </trkpt>
      <trkpt lat="50.0395" lon="5.3164">
        <ele>388</ele>
        <time>2015-01-18T12:07:57Z</time>
      </trkpt>
      <trkpt lat="50.03952" lon="5.3163">
        <ele>388</ele>
        <time>2015-01-18T12:08:02Z</time>
      </trkpt>
      <trkpt lat="50.03954" lon="5.31619">
        <ele>388</ele>
        <time>2015-01-18T12:08:07Z</time>
      </trkpt>
      <trkpt lat="50.03955" lon="5.31608">
        <ele>387</ele>
        <time>2015-01-18T12:08:12Z</time>
      </trkpt>
      <trkpt lat="50.03957" lon="5.31597">
        <ele>388</ele>
        <time>2015-01-18T12:08:18Z</time>
      </trkpt>
      <trkpt lat="50.03958" lon="5.31587">
        <ele>388</ele>
        <time>2015-01-18T12:08:23Z</time>
      </trkpt>
      <trkpt lat="50.03959" lon="5.31578">
        <ele>387</ele>
        <time>2015-01-18T12:08:28Z</time>
      </trkpt>
      <trkpt lat="50.03959" lon="5.31568">
        <ele>388</ele>
        <time>2015-01-18T12:08:33Z</time>
      </trkpt>
      <trkpt lat="50.03959" lon="5.31557">
        <ele>388</ele>
        <time>2015-01-18T12:08:39Z</time>
      </trkpt>
      <trkpt lat="50.03958" lon="5.31545">
        <ele>387</ele>
        <time>2015-01-18T12:08:45Z</time>
      </trkpt>
      <trkpt lat="50.03956" lon="5.31534">
        <ele>388</ele>
        <time>2015-01-18T12:08:51Z</time>
      </trkpt>
      <trkpt lat="50.03954" lon="5.31525">
        <ele>388</ele>
        <time>2015-01-18T12:08:56Z</time>
      </trkpt>
      <trkpt lat="50.03953" lon="5.31516">
        <ele>388</ele>
        <time>2015-01-18T12:09:01Z</time>
      </trkpt>
      <trkpt lat="50.0395" lon="5.31505">
        <ele>388</ele>
        <time>2015-01-18T12:09:07Z</time>
      </trkpt>
      <trkpt lat="50.03949" lon="5.31496">
        <ele>388</ele>
        <time>2015-01-18T12:09:12Z</time>
      </trkpt>
      <trkpt lat="50.03947" lon="5.31487">
        <ele>388</ele>
        <time>2015-01-18T12:09:17Z</time>
      </trkpt>
      <trkpt lat="50.03946" lon="5.31475">
        <ele>388</ele>
        <time>2015-01-18T12:09:23Z</time>
      </trkpt>
      <trkpt lat="50.03946" lon="5.31466">
        <ele>389</ele>
        <time>2015-01-18T12:09:28Z</time>
      </trkpt>
      <trkpt lat="50.03947" lon="5.31455">
        <ele>390</ele>
        <time>2015-01-18T12:09:33Z</time>
      </trkpt>
      <trkpt lat="50.03947" lon="5.31451">
        <ele>390</ele>
        <time>2015-01-18T12:09:38Z</time>
      </trkpt>
      <trkpt lat="50.03947" lon="5.31441">
        <ele>390</ele>
        <time>2015-01-18T12:09:43Z</time>
      </trkpt>
      <trkpt lat="50.03947" lon="5.31431">
        <ele>390</ele>
        <time>2015-01-18T12:09:49Z</time>
      </trkpt>
      <trkpt lat="50.03947" lon="5.31421">
        <ele>391</ele>
        <time>2015-01-18T12:09:54Z</time>
      </trkpt>
      <trkpt lat="50.03947" lon="5.31411">
        <ele>391</ele>
        <time>2015-01-18T12:09:59Z</time>
      </trkpt>
      <trkpt lat="50.03948" lon="5.31402">
        <ele>392</ele>
        <time>2015-01-18T12:10:05Z</time>
      </trkpt>
      <trkpt lat="50.03949" lon="5.31394">
        <ele>392</ele>
        <time>2015-01-18T12:10:10Z</time>
      </trkpt>
      <trkpt lat="50.03949" lon="5.31383">
        <ele>393</ele>
        <time>2015-01-18T12:10:15Z</time>
      </trkpt>
      <trkpt lat="50.03949" lon="5.31376">
        <ele>393</ele>
        <time>2015-01-18T12:10:21Z</time>
      </trkpt>
      <trkpt lat="50.03949" lon="5.31376">
        <ele>393</ele>
        <time>2015-01-18T12:10:26Z</time>
      </trkpt>
      <trkpt lat="50.03949" lon="5.31375">
        <ele>393</ele>
        <time>2015-01-18T12:10:32Z</time>
      </trkpt>
      <trkpt lat="50.0395" lon="5.31369">
        <ele>393</ele>
        <time>2015-01-18T12:10:38Z</time>
      </trkpt>
      <trkpt lat="50.0395" lon="5.31369">
        <ele>393</ele>
        <time>2015-01-18T12:10:44Z</time>
      </trkpt>
      <trkpt lat="50.03949" lon="5.31366">
        <ele>394</ele>
        <time>2015-01-18T12:10:49Z</time>
      </trkpt>
      <trkpt lat="50.03949" lon="5.31366">
        <ele>394</ele>
        <time>2015-01-18T12:10:54Z</time>
      </trkpt>
      <trkpt lat="50.03949" lon="5.31366">
        <ele>394</ele>
        <time>2015-01-18T12:11:01Z</time>
      </trkpt>
      <trkpt lat="50.03949" lon="5.31365">
        <ele>394</ele>
        <time>2015-01-18T12:11:07Z</time>
      </trkpt>
      <trkpt lat="50.03948" lon="5.31365">
        <ele>394</ele>
        <time>2015-01-18T12:11:14Z</time>
      </trkpt>
      <trkpt lat="50.03948" lon="5.31365">
        <ele>394</ele>
        <time>2015-01-18T12:11:19Z</time>
      </trkpt>
      <trkpt lat="50.03948" lon="5.31365">
        <ele>395</ele>
        <time>2015-01-18T12:11:25Z</time>
      </trkpt>
      <trkpt lat="50.03948" lon="5.31366">
        <ele>395</ele>
        <time>2015-01-18T12:11:32Z</time>
      </trkpt>
      <trkpt lat="50.03948" lon="5.31367">
        <ele>394</ele>
        <time>2015-01-18T12:11:39Z</time>
      </trkpt>
      <trkpt lat="50.03949" lon="5.31367">
        <ele>394</ele>
        <time>2015-01-18T12:11:45Z</time>
      </trkpt>
      <trkpt lat="50.03949" lon="5.31368">
        <ele>394</ele>
        <time>2015-01-18T12:11:51Z</time>
      </trkpt>
      <trkpt lat="50.0395" lon="5.31368">
        <ele>394</ele>
        <time>2015-01-18T12:11:57Z</time>
      </trkpt>
      <trkpt lat="50.0395" lon="5.3137">
        <ele>394</ele>
        <time>2015-01-18T12:12:09Z</time>
      </trkpt>
      <trkpt lat="50.03948" lon="5.31367">
        <ele>394</ele>
        <time>2015-01-18T12:12:14Z</time>
      </trkpt>
      <trkpt lat="50.03949" lon="5.31362">
        <ele>394</ele>
        <time>2015-01-18T12:12:20Z</time>
      </trkpt>
      <trkpt lat="50.03949" lon="5.31356">
        <ele>394</ele>
        <time>2015-01-18T12:12:25Z</time>
      </trkpt>
      <trkpt lat="50.03948" lon="5.31351">
        <ele>395</ele>
        <time>2015-01-18T12:12:31Z</time>
      </trkpt>
      <trkpt lat="50.03948" lon="5.31343">
        <ele>395</ele>
        <time>2015-01-18T12:12:36Z</time>
      </trkpt>
      <trkpt lat="50.03949" lon="5.31333">
        <ele>395</ele>
        <time>2015-01-18T12:12:41Z</time>
      </trkpt>
      <trkpt lat="50.03949" lon="5.31324">
        <ele>396</ele>
        <time>2015-01-18T12:12:47Z</time>
      </trkpt>
      <trkpt lat="50.03949" lon="5.31314">
        <ele>396</ele>
        <time>2015-01-18T12:12:53Z</time>
      </trkpt>
      <trkpt lat="50.03948" lon="5.31306">
        <ele>397</ele>
        <time>2015-01-18T12:12:59Z</time>
      </trkpt>
      <trkpt lat="50.03948" lon="5.31295">
        <ele>397</ele>
        <time>2015-01-18T12:13:04Z</time>
      </trkpt>
      <trkpt lat="50.03948" lon="5.31284">
        <ele>397</ele>
        <time>2015-01-18T12:13:11Z</time>
      </trkpt>
      <trkpt lat="50.03947" lon="5.31275">
        <ele>398</ele>
        <time>2015-01-18T12:13:16Z</time>
      </trkpt>
      <trkpt lat="50.03945" lon="5.31266">
        <ele>398</ele>
        <time>2015-01-18T12:13:21Z</time>
      </trkpt>
      <trkpt lat="50.03942" lon="5.31257">
        <ele>398</ele>
        <time>2015-01-18T12:13:27Z</time>
      </trkpt>
      <trkpt lat="50.0394" lon="5.31251">
        <ele>399</ele>
        <time>2015-01-18T12:13:33Z</time>
      </trkpt>
      <trkpt lat="50.03936" lon="5.3124">
        <ele>400</ele>
        <time>2015-01-18T12:13:39Z</time>
      </trkpt>
      <trkpt lat="50.03933" lon="5.31231">
        <ele>400</ele>
        <time>2015-01-18T12:13:46Z</time>
      </trkpt>
      <trkpt lat="50.03932" lon="5.31227">
        <ele>401</ele>
        <time>2015-01-18T12:13:54Z</time>
      </trkpt>
      <trkpt lat="50.03933" lon="5.31227">
        <ele>402</ele>
        <time>2015-01-18T12:14:00Z</time>
      </trkpt>
      <trkpt lat="50.03932" lon="5.31225">
        <ele>402</ele>
        <time>2015-01-18T12:14:05Z</time>
      </trkpt>
      <trkpt lat="50.03929" lon="5.31216">
        <ele>402</ele>
        <time>2015-01-18T12:14:10Z</time>
      </trkpt>
      <trkpt lat="50.03929" lon="5.31213">
        <ele>402</ele>
        <time>2015-01-18T12:14:16Z</time>
      </trkpt>
      <trkpt lat="50.03929" lon="5.31213">
        <ele>402</ele>
        <time>2015-01-18T12:14:22Z</time>
      </trkpt>
      <trkpt lat="50.03926" lon="5.31204">
        <ele>402</ele>
        <time>2015-01-18T12:14:28Z</time>
      </trkpt>
      <trkpt lat="50.03923" lon="5.31193">
        <ele>403</ele>
        <time>2015-01-18T12:14:34Z</time>
      </trkpt>
      <trkpt lat="50.03921" lon="5.31183">
        <ele>403</ele>
        <time>2015-01-18T12:14:40Z</time>
      </trkpt>
      <trkpt lat="50.03918" lon="5.31173">
        <ele>403</ele>
        <time>2015-01-18T12:14:45Z</time>
      </trkpt>
      <trkpt lat="50.03915" lon="5.31162">
        <ele>403</ele>
        <time>2015-01-18T12:14:51Z</time>
      </trkpt>
      <trkpt lat="50.03913" lon="5.31154">
        <ele>403</ele>
        <time>2015-01-18T12:14:56Z</time>
      </trkpt>
      <trkpt lat="50.0391" lon="5.31144">
        <ele>404</ele>
        <time>2015-01-18T12:15:02Z</time>
      </trkpt>
      <trkpt lat="50.03909" lon="5.31136">
        <ele>405</ele>
        <time>2015-01-18T12:15:07Z</time>
      </trkpt>
      <trkpt lat="50.03906" lon="5.31125">
        <ele>405</ele>
        <time>2015-01-18T12:15:13Z</time>
      </trkpt>
      <trkpt lat="50.03905" lon="5.31117">
        <ele>405</ele>
        <time>2015-01-18T12:15:18Z</time>
      </trkpt>
      <trkpt lat="50.03903" lon="5.31108">
        <ele>405</ele>
        <time>2015-01-18T12:15:24Z</time>
      </trkpt>
      <trkpt lat="50.03901" lon="5.31097">
        <ele>404</ele>
        <time>2015-01-18T12:15:29Z</time>
      </trkpt>
      <trkpt lat="50.039" lon="5.31089">
        <ele>405</ele>
        <time>2015-01-18T12:15:34Z</time>
      </trkpt>
      <trkpt lat="50.03898" lon="5.31079">
        <ele>406</ele>
        <time>2015-01-18T12:15:39Z</time>
      </trkpt>
      <trkpt lat="50.03896" lon="5.31068">
        <ele>407</ele>
        <time>2015-01-18T12:15:45Z</time>
      </trkpt>
      <trkpt lat="50.03894" lon="5.31058">
        <ele>408</ele>
        <time>2015-01-18T12:15:51Z</time>
      </trkpt>
      <trkpt lat="50.03892" lon="5.31049">
        <ele>408</ele>
        <time>2015-01-18T12:15:56Z</time>
      </trkpt>
      <trkpt lat="50.03891" lon="5.3104">
        <ele>408</ele>
        <time>2015-01-18T12:16:02Z</time>
      </trkpt>
      <trkpt lat="50.0389" lon="5.31031">
        <ele>408</ele>
        <time>2015-01-18T12:16:07Z</time>
      </trkpt>
      <trkpt lat="50.0389" lon="5.31027">
        <ele>409</ele>
        <time>2015-01-18T12:16:14Z</time>
      </trkpt>
      <trkpt lat="50.0389" lon="5.31018">
        <ele>408</ele>
        <time>2015-01-18T12:16:19Z</time>
      </trkpt>
      <trkpt lat="50.0389" lon="5.31009">
        <ele>409</ele>
        <time>2015-01-18T12:16:26Z</time>
      </trkpt>
      <trkpt lat="50.03889" lon="5.30998">
        <ele>409</ele>
        <time>2015-01-18T12:16:31Z</time>
      </trkpt>
      <trkpt lat="50.03888" lon="5.30989">
        <ele>410</ele>
        <time>2015-01-18T12:16:36Z</time>
      </trkpt>
      <trkpt lat="50.03887" lon="5.3098">
        <ele>410</ele>
        <time>2015-01-18T12:16:42Z</time>
      </trkpt>
      <trkpt lat="50.03886" lon="5.3097">
        <ele>411</ele>
        <time>2015-01-18T12:16:47Z</time>
      </trkpt>
      <trkpt lat="50.03885" lon="5.30962">
        <ele>411</ele>
        <time>2015-01-18T12:16:52Z</time>
      </trkpt>
      <trkpt lat="50.03883" lon="5.30955">
        <ele>411</ele>
        <time>2015-01-18T12:16:58Z</time>
      </trkpt>
      <trkpt lat="50.0388" lon="5.30944">
        <ele>411</ele>
        <time>2015-01-18T12:17:04Z</time>
      </trkpt>
      <trkpt lat="50.03878" lon="5.30935">
        <ele>411</ele>
        <time>2015-01-18T12:17:09Z</time>
      </trkpt>
      <trkpt lat="50.03877" lon="5.30923">
        <ele>411</ele>
        <time>2015-01-18T12:17:15Z</time>
      </trkpt>
      <trkpt lat="50.03875" lon="5.30914">
        <ele>412</ele>
        <time>2015-01-18T12:17:21Z</time>
      </trkpt>
      <trkpt lat="50.03871" lon="5.30907">
        <ele>413</ele>
        <time>2015-01-18T12:17:26Z</time>
      </trkpt>
      <trkpt lat="50.03867" lon="5.30906">
        <ele>414</ele>
        <time>2015-01-18T12:17:31Z</time>
      </trkpt>
      <trkpt lat="50.03865" lon="5.30906">
        <ele>414</ele>
        <time>2015-01-18T12:17:36Z</time>
      </trkpt>
      <trkpt lat="50.03865" lon="5.30903">
        <ele>413</ele>
        <time>2015-01-18T12:17:42Z</time>
      </trkpt>
      <trkpt lat="50.03866" lon="5.30902">
        <ele>413</ele>
        <time>2015-01-18T12:17:47Z</time>
      </trkpt>
      <trkpt lat="50.03867" lon="5.30901">
        <ele>414</ele>
        <time>2015-01-18T12:17:53Z</time>
      </trkpt>
      <trkpt lat="50.03869" lon="5.30904">
        <ele>413</ele>
        <time>2015-01-18T12:17:58Z</time>
      </trkpt>
      <trkpt lat="50.0387" lon="5.30904">
        <ele>414</ele>
        <time>2015-01-18T12:18:03Z</time>
      </trkpt>
      <trkpt lat="50.03871" lon="5.30905">
        <ele>413</ele>
        <time>2015-01-18T12:18:11Z</time>
      </trkpt>
      <trkpt lat="50.0387" lon="5.30906">
        <ele>414</ele>
        <time>2015-01-18T12:18:16Z</time>
      </trkpt>
      <trkpt lat="50.03868" lon="5.30906">
        <ele>413</ele>
        <time>2015-01-18T12:18:22Z</time>
      </trkpt>
      <trkpt lat="50.03865" lon="5.30904">
        <ele>413</ele>
        <time>2015-01-18T12:18:27Z</time>
      </trkpt>
      <trkpt lat="50.03863" lon="5.30903">
        <ele>413</ele>
        <time>2015-01-18T12:18:32Z</time>
      </trkpt>
      <trkpt lat="50.03862" lon="5.30902">
        <ele>412</ele>
        <time>2015-01-18T12:18:37Z</time>
      </trkpt>
      <trkpt lat="50.03862" lon="5.30901">
        <ele>413</ele>
        <time>2015-01-18T12:18:44Z</time>
      </trkpt>
      <trkpt lat="50.03862" lon="5.30901">
        <ele>413</ele>
        <time>2015-01-18T12:18:49Z</time>
      </trkpt>
      <trkpt lat="50.03862" lon="5.30901">
        <ele>413</ele>
        <time>2015-01-18T12:18:55Z</time>
      </trkpt>
      <trkpt lat="50.03863" lon="5.30899">
        <ele>413</ele>
        <time>2015-01-18T12:19:01Z</time>
      </trkpt>
      <trkpt lat="50.03863" lon="5.30898">
        <ele>413</ele>
        <time>2015-01-18T12:19:07Z</time>
      </trkpt>
      <trkpt lat="50.03865" lon="5.30897">
        <ele>413</ele>
        <time>2015-01-18T12:19:12Z</time>
      </trkpt>
      <trkpt lat="50.03867" lon="5.30895">
        <ele>413</ele>
        <time>2015-01-18T12:19:19Z</time>
      </trkpt>
      <trkpt lat="50.03867" lon="5.30895">
        <ele>412</ele>
        <time>2015-01-18T12:19:24Z</time>
      </trkpt>
      <trkpt lat="50.03867" lon="5.30896">
        <ele>413</ele>
        <time>2015-01-18T12:19:30Z</time>
      </trkpt>
      <trkpt lat="50.03868" lon="5.30897">
        <ele>413</ele>
        <time>2015-01-18T12:19:36Z</time>
      </trkpt>
      <trkpt lat="50.03867" lon="5.30896">
        <ele>412</ele>
        <time>2015-01-18T12:19:41Z</time>
      </trkpt>
      <trkpt lat="50.03866" lon="5.30896">
        <ele>412</ele>
        <time>2015-01-18T12:19:46Z</time>
      </trkpt>
      <trkpt lat="50.03866" lon="5.30897">
        <ele>413</ele>
        <time>2015-01-18T12:19:53Z</time>
      </trkpt>
      <trkpt lat="50.03865" lon="5.30897">
        <ele>413</ele>
        <time>2015-01-18T12:19:59Z</time>
      </trkpt>
      <trkpt lat="50.03867" lon="5.30894">
        <ele>413</ele>
        <time>2015-01-18T12:20:05Z</time>
      </trkpt>
      <trkpt lat="50.03871" lon="5.30887">
        <ele>414</ele>
        <time>2015-01-18T12:20:11Z</time>
      </trkpt>
      <trkpt lat="50.03872" lon="5.30877">
        <ele>413</ele>
        <time>2015-01-18T12:20:16Z</time>
      </trkpt>
      <trkpt lat="50.0387" lon="5.30866">
        <ele>412</ele>
        <time>2015-01-18T12:20:22Z</time>
      </trkpt>
      <trkpt lat="50.03871" lon="5.30858">
        <ele>413</ele>
        <time>2015-01-18T12:20:27Z</time>
      </trkpt>
      <trkpt lat="50.0387" lon="5.30852">
        <ele>413</ele>
        <time>2015-01-18T12:20:32Z</time>
      </trkpt>
      <trkpt lat="50.03868" lon="5.30844">
        <ele>413</ele>
        <time>2015-01-18T12:20:37Z</time>
      </trkpt>
      <trkpt lat="50.03866" lon="5.30836">
        <ele>413</ele>
        <time>2015-01-18T12:20:42Z</time>
      </trkpt>
      <trkpt lat="50.03863" lon="5.30827">
        <ele>413</ele>
        <time>2015-01-18T12:20:47Z</time>
      </trkpt>
      <trkpt lat="50.0386" lon="5.30818">
        <ele>412</ele>
        <time>2015-01-18T12:20:52Z</time>
      </trkpt>
      <trkpt lat="50.03857" lon="5.30808">
        <ele>412</ele>
        <time>2015-01-18T12:20:57Z</time>
      </trkpt>
      <trkpt lat="50.03854" lon="5.30796">
        <ele>412</ele>
        <time>2015-01-18T12:21:03Z</time>
      </trkpt>
      <trkpt lat="50.03853" lon="5.30788">
        <ele>413</ele>
        <time>2015-01-18T12:21:09Z</time>
      </trkpt>
      <trkpt lat="50.0385" lon="5.30777">
        <ele>413</ele>
        <time>2015-01-18T12:21:14Z</time>
      </trkpt>
      <trkpt lat="50.03847" lon="5.30767">
        <ele>413</ele>
        <time>2015-01-18T12:21:19Z</time>
      </trkpt>
      <trkpt lat="50.03844" lon="5.30756">
        <ele>411</ele>
        <time>2015-01-18T12:21:25Z</time>
      </trkpt>
      <trkpt lat="50.03842" lon="5.30747">
        <ele>410</ele>
        <time>2015-01-18T12:21:30Z</time>
      </trkpt>
      <trkpt lat="50.03839" lon="5.30737">
        <ele>410</ele>
        <time>2015-01-18T12:21:36Z</time>
      </trkpt>
      <trkpt lat="50.03836" lon="5.30728">
        <ele>410</ele>
        <time>2015-01-18T12:21:42Z</time>
      </trkpt>
      <trkpt lat="50.03834" lon="5.30719">
        <ele>409</ele>
        <time>2015-01-18T12:21:48Z</time>
      </trkpt>
      <trkpt lat="50.03831" lon="5.3071">
        <ele>409</ele>
        <time>2015-01-18T12:21:53Z</time>
      </trkpt>
      <trkpt lat="50.0383" lon="5.307">
        <ele>409</ele>
        <time>2015-01-18T12:21:58Z</time>
      </trkpt>
      <trkpt lat="50.03829" lon="5.30689">
        <ele>408</ele>
        <time>2015-01-18T12:22:04Z</time>
      </trkpt>
      <trkpt lat="50.03829" lon="5.3068">
        <ele>408</ele>
        <time>2015-01-18T12:22:10Z</time>
      </trkpt>
      <trkpt lat="50.03829" lon="5.30668">
        <ele>407</ele>
        <time>2015-01-18T12:22:15Z</time>
      </trkpt>
      <trkpt lat="50.0383" lon="5.30657">
        <ele>406</ele>
        <time>2015-01-18T12:22:21Z</time>
      </trkpt>
      <trkpt lat="50.03831" lon="5.30648">
        <ele>406</ele>
        <time>2015-01-18T12:22:26Z</time>
      </trkpt>
      <trkpt lat="50.03833" lon="5.3064">
        <ele>406</ele>
        <time>2015-01-18T12:22:31Z</time>
      </trkpt>
      <trkpt lat="50.03834" lon="5.30638">
        <ele>405</ele>
        <time>2015-01-18T12:22:36Z</time>
      </trkpt>
      <trkpt lat="50.03834" lon="5.30642">
        <ele>405</ele>
        <time>2015-01-18T12:22:42Z</time>
      </trkpt>
      <trkpt lat="50.03834" lon="5.30647">
        <ele>406</ele>
        <time>2015-01-18T12:22:48Z</time>
      </trkpt>
      <trkpt lat="50.03834" lon="5.30647">
        <ele>406</ele>
        <time>2015-01-18T12:22:54Z</time>
      </trkpt>
      <trkpt lat="50.03834" lon="5.30647">
        <ele>406</ele>
        <time>2015-01-18T12:22:59Z</time>
      </trkpt>
      <trkpt lat="50.03834" lon="5.30647">
        <ele>406</ele>
        <time>2015-01-18T12:23:04Z</time>
      </trkpt>
      <trkpt lat="50.03835" lon="5.30648">
        <ele>406</ele>
        <time>2015-01-18T12:23:10Z</time>
      </trkpt>
      <trkpt lat="50.03836" lon="5.30649">
        <ele>406</ele>
        <time>2015-01-18T12:23:15Z</time>
      </trkpt>
      <trkpt lat="50.03837" lon="5.30644">
        <ele>405</ele>
        <time>2015-01-18T12:23:21Z</time>
      </trkpt>
      <trkpt lat="50.03838" lon="5.30638">
        <ele>405</ele>
        <time>2015-01-18T12:23:26Z</time>
      </trkpt>
      <trkpt lat="50.03838" lon="5.30635">
        <ele>405</ele>
        <time>2015-01-18T12:23:31Z</time>
      </trkpt>
      <trkpt lat="50.03837" lon="5.30632">
        <ele>405</ele>
        <time>2015-01-18T12:23:37Z</time>
      </trkpt>
      <trkpt lat="50.03837" lon="5.3063">
        <ele>405</ele>
        <time>2015-01-18T12:23:43Z</time>
      </trkpt>
      <trkpt lat="50.03838" lon="5.30626">
        <ele>405</ele>
        <time>2015-01-18T12:23:49Z</time>
      </trkpt>
      <trkpt lat="50.03837" lon="5.30626">
        <ele>404</ele>
        <time>2015-01-18T12:23:54Z</time>
      </trkpt>
      <trkpt lat="50.03836" lon="5.30626">
        <ele>405</ele>
        <time>2015-01-18T12:24:00Z</time>
      </trkpt>
      <trkpt lat="50.03836" lon="5.30622">
        <ele>404</ele>
        <time>2015-01-18T12:24:06Z</time>
      </trkpt>
      <trkpt lat="50.03836" lon="5.30617">
        <ele>405</ele>
        <time>2015-01-18T12:24:12Z</time>
      </trkpt>
      <trkpt lat="50.03836" lon="5.30613">
        <ele>404</ele>
        <time>2015-01-18T12:24:18Z</time>
      </trkpt>
      <trkpt lat="50.03837" lon="5.30604">
        <ele>404</ele>
        <time>2015-01-18T12:24:23Z</time>
      </trkpt>
      <trkpt lat="50.03837" lon="5.30595">
        <ele>403</ele>
        <time>2015-01-18T12:24:29Z</time>
      </trkpt>
      <trkpt lat="50.03838" lon="5.30585">
        <ele>404</ele>
        <time>2015-01-18T12:24:35Z</time>
      </trkpt>
      <trkpt lat="50.03838" lon="5.30577">
        <ele>404</ele>
        <time>2015-01-18T12:24:40Z</time>
      </trkpt>
      <trkpt lat="50.03837" lon="5.30567">
        <ele>403</ele>
        <time>2015-01-18T12:24:46Z</time>
      </trkpt>
      <trkpt lat="50.03838" lon="5.30559">
        <ele>402</ele>
        <time>2015-01-18T12:24:51Z</time>
      </trkpt>
      <trkpt lat="50.03838" lon="5.30548">
        <ele>402</ele>
        <time>2015-01-18T12:24:57Z</time>
      </trkpt>
      <trkpt lat="50.03837" lon="5.30536">
        <ele>402</ele>
        <time>2015-01-18T12:25:03Z</time>
      </trkpt>
      <trkpt lat="50.03836" lon="5.30527">
        <ele>400</ele>
        <time>2015-01-18T12:25:09Z</time>
      </trkpt>
      <trkpt lat="50.03835" lon="5.30516">
        <ele>399</ele>
        <time>2015-01-18T12:25:15Z</time>
      </trkpt>
      <trkpt lat="50.03834" lon="5.30505">
        <ele>399</ele>
        <time>2015-01-18T12:25:21Z</time>
      </trkpt>
      <trkpt lat="50.03832" lon="5.30494">
        <ele>399</ele>
        <time>2015-01-18T12:25:27Z</time>
      </trkpt>
      <trkpt lat="50.03831" lon="5.30482">
        <ele>399</ele>
        <time>2015-01-18T12:25:33Z</time>
      </trkpt>
      <trkpt lat="50.0383" lon="5.30473">
        <ele>399</ele>
        <time>2015-01-18T12:25:38Z</time>
      </trkpt>
      <trkpt lat="50.03829" lon="5.30462">
        <ele>398</ele>
        <time>2015-01-18T12:25:44Z</time>
      </trkpt>
      <trkpt lat="50.03829" lon="5.30452">
        <ele>396</ele>
        <time>2015-01-18T12:25:49Z</time>
      </trkpt>
      <trkpt lat="50.03829" lon="5.30443">
        <ele>396</ele>
        <time>2015-01-18T12:25:55Z</time>
      </trkpt>
      <trkpt lat="50.0383" lon="5.30431">
        <ele>395</ele>
        <time>2015-01-18T12:26:01Z</time>
      </trkpt>
      <trkpt lat="50.03831" lon="5.30423">
        <ele>394</ele>
        <time>2015-01-18T12:26:06Z</time>
      </trkpt>
      <trkpt lat="50.03831" lon="5.30412">
        <ele>394</ele>
        <time>2015-01-18T12:26:12Z</time>
      </trkpt>
      <trkpt lat="50.03832" lon="5.304">
        <ele>394</ele>
        <time>2015-01-18T12:26:18Z</time>
      </trkpt>
      <trkpt lat="50.03832" lon="5.30392">
        <ele>394</ele>
        <time>2015-01-18T12:26:24Z</time>
      </trkpt>
      <trkpt lat="50.03833" lon="5.30383">
        <ele>395</ele>
        <time>2015-01-18T12:26:30Z</time>
      </trkpt>
      <trkpt lat="50.03834" lon="5.30374">
        <ele>395</ele>
        <time>2015-01-18T12:26:35Z</time>
      </trkpt>
      <trkpt lat="50.03834" lon="5.30363">
        <ele>394</ele>
        <time>2015-01-18T12:26:41Z</time>
      </trkpt>
      <trkpt lat="50.03836" lon="5.30355">
        <ele>394</ele>
        <time>2015-01-18T12:26:46Z</time>
      </trkpt>
      <trkpt lat="50.03838" lon="5.30346">
        <ele>394</ele>
        <time>2015-01-18T12:26:51Z</time>
      </trkpt>
      <trkpt lat="50.03839" lon="5.30338">
        <ele>393</ele>
        <time>2015-01-18T12:26:56Z</time>
      </trkpt>
      <trkpt lat="50.03838" lon="5.30328">
        <ele>393</ele>
        <time>2015-01-18T12:27:02Z</time>
      </trkpt>
      <trkpt lat="50.03837" lon="5.30315">
        <ele>393</ele>
        <time>2015-01-18T12:27:08Z</time>
      </trkpt>
      <trkpt lat="50.03835" lon="5.30303">
        <ele>392</ele>
        <time>2015-01-18T12:27:14Z</time>
      </trkpt>
      <trkpt lat="50.03834" lon="5.30294">
        <ele>392</ele>
        <time>2015-01-18T12:27:20Z</time>
      </trkpt>
      <trkpt lat="50.03835" lon="5.30287">
        <ele>391</ele>
        <time>2015-01-18T12:27:25Z</time>
      </trkpt>
      <trkpt lat="50.03834" lon="5.30278">
        <ele>391</ele>
        <time>2015-01-18T12:27:31Z</time>
      </trkpt>
      <trkpt lat="50.03834" lon="5.30271">
        <ele>391</ele>
        <time>2015-01-18T12:27:36Z</time>
      </trkpt>
      <trkpt lat="50.03833" lon="5.30264">
        <ele>391</ele>
        <time>2015-01-18T12:27:42Z</time>
      </trkpt>
      <trkpt lat="50.03834" lon="5.30256">
        <ele>392</ele>
        <time>2015-01-18T12:27:47Z</time>
      </trkpt>
      <trkpt lat="50.03835" lon="5.30251">
        <ele>390</ele>
        <time>2015-01-18T12:27:52Z</time>
      </trkpt>
      <trkpt lat="50.03835" lon="5.30248">
        <ele>390</ele>
        <time>2015-01-18T12:27:58Z</time>
      </trkpt>
      <trkpt lat="50.03836" lon="5.30246">
        <ele>391</ele>
        <time>2015-01-18T12:28:03Z</time>
      </trkpt>
      <trkpt lat="50.03837" lon="5.30242">
        <ele>392</ele>
        <time>2015-01-18T12:28:09Z</time>
      </trkpt>
      <trkpt lat="50.03837" lon="5.30238">
        <ele>391</ele>
        <time>2015-01-18T12:28:15Z</time>
      </trkpt>
      <trkpt lat="50.03838" lon="5.30237">
        <ele>392</ele>
        <time>2015-01-18T12:28:20Z</time>
      </trkpt>
      <trkpt lat="50.03837" lon="5.30236">
        <ele>391</ele>
        <time>2015-01-18T12:28:27Z</time>
      </trkpt>
      <trkpt lat="50.03839" lon="5.30236">
        <ele>391</ele>
        <time>2015-01-18T12:28:32Z</time>
      </trkpt>
      <trkpt lat="50.03839" lon="5.30237">
        <ele>391</ele>
        <time>2015-01-18T12:28:38Z</time>
      </trkpt>
      <trkpt lat="50.03838" lon="5.30235">
        <ele>391</ele>
        <time>2015-01-18T12:28:44Z</time>
      </trkpt>
      <trkpt lat="50.03837" lon="5.30232">
        <ele>392</ele>
        <time>2015-01-18T12:28:50Z</time>
      </trkpt>
      <trkpt lat="50.03836" lon="5.30231">
        <ele>392</ele>
        <time>2015-01-18T12:28:55Z</time>
      </trkpt>
      <trkpt lat="50.03835" lon="5.30227">
        <ele>392</ele>
        <time>2015-01-18T12:29:01Z</time>
      </trkpt>
      <trkpt lat="50.03835" lon="5.30226">
        <ele>391</ele>
        <time>2015-01-18T12:29:06Z</time>
      </trkpt>
      <trkpt lat="50.03835" lon="5.30219">
        <ele>391</ele>
        <time>2015-01-18T12:29:12Z</time>
      </trkpt>
      <trkpt lat="50.03832" lon="5.30212">
        <ele>391</ele>
        <time>2015-01-18T12:29:17Z</time>
      </trkpt>
      <trkpt lat="50.03828" lon="5.30207">
        <ele>391</ele>
        <time>2015-01-18T12:29:23Z</time>
      </trkpt>
      <trkpt lat="50.03825" lon="5.30202">
        <ele>392</ele>
        <time>2015-01-18T12:29:28Z</time>
      </trkpt>
      <trkpt lat="50.0382" lon="5.30195">
        <ele>392</ele>
        <time>2015-01-18T12:29:34Z</time>
      </trkpt>
      <trkpt lat="50.03816" lon="5.3019">
        <ele>391</ele>
        <time>2015-01-18T12:29:40Z</time>
      </trkpt>
      <trkpt lat="50.03814" lon="5.30184">
        <ele>391</ele>
        <time>2015-01-18T12:29:45Z</time>
      </trkpt>
      <trkpt lat="50.0381" lon="5.30178">
        <ele>391</ele>
        <time>2015-01-18T12:29:51Z</time>
      </trkpt>
      <trkpt lat="50.03809" lon="5.30173">
        <ele>392</ele>
        <time>2015-01-18T12:29:57Z</time>
      </trkpt>
      <trkpt lat="50.03808" lon="5.30169">
        <ele>392</ele>
        <time>2015-01-18T12:30:03Z</time>
      </trkpt>
      <trkpt lat="50.03807" lon="5.30163">
        <ele>391</ele>
        <time>2015-01-18T12:30:09Z</time>
      </trkpt>
      <trkpt lat="50.03807" lon="5.30159">
        <ele>392</ele>
        <time>2015-01-18T12:30:14Z</time>
      </trkpt>
      <trkpt lat="50.03806" lon="5.30159">
        <ele>392</ele>
        <time>2015-01-18T12:30:20Z</time>
      </trkpt>
      <trkpt lat="50.03801" lon="5.30153">
        <ele>392</ele>
        <time>2015-01-18T12:30:26Z</time>
      </trkpt>
      <trkpt lat="50.038" lon="5.30146">
        <ele>391</ele>
        <time>2015-01-18T12:30:31Z</time>
      </trkpt>
      <trkpt lat="50.03799" lon="5.30138">
        <ele>391</ele>
        <time>2015-01-18T12:30:37Z</time>
      </trkpt>
      <trkpt lat="50.03799" lon="5.3013">
        <ele>391</ele>
        <time>2015-01-18T12:30:43Z</time>
      </trkpt>
      <trkpt lat="50.03799" lon="5.3012">
        <ele>391</ele>
        <time>2015-01-18T12:30:49Z</time>
      </trkpt>
      <trkpt lat="50.038" lon="5.30111">
        <ele>391</ele>
        <time>2015-01-18T12:30:55Z</time>
      </trkpt>
      <trkpt lat="50.03799" lon="5.30103">
        <ele>391</ele>
        <time>2015-01-18T12:31:01Z</time>
      </trkpt>
      <trkpt lat="50.03798" lon="5.30094">
        <ele>390</ele>
        <time>2015-01-18T12:31:06Z</time>
      </trkpt>
      <trkpt lat="50.03796" lon="5.30086">
        <ele>390</ele>
        <time>2015-01-18T12:31:12Z</time>
      </trkpt>
      <trkpt lat="50.03794" lon="5.30077">
        <ele>390</ele>
        <time>2015-01-18T12:31:18Z</time>
      </trkpt>
      <trkpt lat="50.03792" lon="5.3007">
        <ele>390</ele>
        <time>2015-01-18T12:31:24Z</time>
      </trkpt>
      <trkpt lat="50.03789" lon="5.30061">
        <ele>390</ele>
        <time>2015-01-18T12:31:30Z</time>
      </trkpt>
      <trkpt lat="50.03787" lon="5.30054">
        <ele>390</ele>
        <time>2015-01-18T12:31:35Z</time>
      </trkpt>
      <trkpt lat="50.03784" lon="5.30045">
        <ele>389</ele>
        <time>2015-01-18T12:31:41Z</time>
      </trkpt>
      <trkpt lat="50.0378" lon="5.30037">
        <ele>390</ele>
        <time>2015-01-18T12:31:47Z</time>
      </trkpt>
      <trkpt lat="50.03778" lon="5.30033">
        <ele>390</ele>
        <time>2015-01-18T12:31:53Z</time>
      </trkpt>
      <trkpt lat="50.03779" lon="5.30033">
        <ele>390</ele>
        <time>2015-01-18T12:31:59Z</time>
      </trkpt>
      <trkpt lat="50.0378" lon="5.30033">
        <ele>389</ele>
        <time>2015-01-18T12:32:04Z</time>
      </trkpt>
      <trkpt lat="50.03778" lon="5.3003">
        <ele>389</ele>
        <time>2015-01-18T12:32:10Z</time>
      </trkpt>
      <trkpt lat="50.03777" lon="5.30026">
        <ele>389</ele>
        <time>2015-01-18T12:32:15Z</time>
      </trkpt>
      <trkpt lat="50.03775" lon="5.30021">
        <ele>389</ele>
        <time>2015-01-18T12:32:21Z</time>
      </trkpt>
      <trkpt lat="50.03773" lon="5.30013">
        <ele>389</ele>
        <time>2015-01-18T12:32:27Z</time>
      </trkpt>
      <trkpt lat="50.0377" lon="5.30008">
        <ele>389</ele>
        <time>2015-01-18T12:32:32Z</time>
      </trkpt>
      <trkpt lat="50.03766" lon="5.3">
        <ele>389</ele>
        <time>2015-01-18T12:32:38Z</time>
      </trkpt>
      <trkpt lat="50.03763" lon="5.29993">
        <ele>390</ele>
        <time>2015-01-18T12:32:44Z</time>
      </trkpt>
      <trkpt lat="50.03759" lon="5.29986">
        <ele>390</ele>
        <time>2015-01-18T12:32:50Z</time>
      </trkpt>
      <trkpt lat="50.03755" lon="5.29979">
        <ele>391</ele>
        <time>2015-01-18T12:32:55Z</time>
      </trkpt>
      <trkpt lat="50.03749" lon="5.29973">
        <ele>391</ele>
        <time>2015-01-18T12:33:01Z</time>
      </trkpt>
      <trkpt lat="50.03745" lon="5.29966">
        <ele>390</ele>
        <time>2015-01-18T12:33:06Z</time>
      </trkpt>
      <trkpt lat="50.0374" lon="5.29959">
        <ele>390</ele>
        <time>2015-01-18T12:33:12Z</time>
      </trkpt>
      <trkpt lat="50.03737" lon="5.29954">
        <ele>391</ele>
        <time>2015-01-18T12:33:17Z</time>
      </trkpt>
      <trkpt lat="50.03733" lon="5.29946">
        <ele>390</ele>
        <time>2015-01-18T12:33:23Z</time>
      </trkpt>
      <trkpt lat="50.03731" lon="5.29938">
        <ele>390</ele>
        <time>2015-01-18T12:33:29Z</time>
      </trkpt>
      <trkpt lat="50.03728" lon="5.29928">
        <ele>391</ele>
        <time>2015-01-18T12:33:35Z</time>
      </trkpt>
      <trkpt lat="50.03725" lon="5.29919">
        <ele>391</ele>
        <time>2015-01-18T12:33:41Z</time>
      </trkpt>
      <trkpt lat="50.03724" lon="5.29914">
        <ele>391</ele>
        <time>2015-01-18T12:33:46Z</time>
      </trkpt>
      <trkpt lat="50.0372" lon="5.29906">
        <ele>391</ele>
        <time>2015-01-18T12:33:52Z</time>
      </trkpt>
      <trkpt lat="50.03716" lon="5.29897">
        <ele>391</ele>
        <time>2015-01-18T12:33:58Z</time>
      </trkpt>
      <trkpt lat="50.03713" lon="5.29889">
        <ele>392</ele>
        <time>2015-01-18T12:34:04Z</time>
      </trkpt>
      <trkpt lat="50.03709" lon="5.29882">
        <ele>392</ele>
        <time>2015-01-18T12:34:10Z</time>
      </trkpt>
      <trkpt lat="50.03706" lon="5.29878">
        <ele>392</ele>
        <time>2015-01-18T12:34:15Z</time>
      </trkpt>
      <trkpt lat="50.03703" lon="5.29871">
        <ele>392</ele>
        <time>2015-01-18T12:34:21Z</time>
      </trkpt>
      <trkpt lat="50.037" lon="5.29864">
        <ele>392</ele>
        <time>2015-01-18T12:34:26Z</time>
      </trkpt>
      <trkpt lat="50.03696" lon="5.29855">
        <ele>392</ele>
        <time>2015-01-18T12:34:32Z</time>
      </trkpt>
      <trkpt lat="50.03694" lon="5.29847">
        <ele>392</ele>
        <time>2015-01-18T12:34:38Z</time>
      </trkpt>
      <trkpt lat="50.03693" lon="5.2984">
        <ele>393</ele>
        <time>2015-01-18T12:34:43Z</time>
      </trkpt>
      <trkpt lat="50.0369" lon="5.29833">
        <ele>392</ele>
        <time>2015-01-18T12:34:49Z</time>
      </trkpt>
      <trkpt lat="50.03688" lon="5.29827">
        <ele>392</ele>
        <time>2015-01-18T12:34:54Z</time>
      </trkpt>
      <trkpt lat="50.03686" lon="5.29821">
        <ele>392</ele>
        <time>2015-01-18T12:35:00Z</time>
      </trkpt>
      <trkpt lat="50.03682" lon="5.29816">
        <ele>393</ele>
        <time>2015-01-18T12:35:06Z</time>
      </trkpt>
      <trkpt lat="50.03677" lon="5.2981">
        <ele>393</ele>
        <time>2015-01-18T12:35:11Z</time>
      </trkpt>
      <trkpt lat="50.03672" lon="5.29804">
        <ele>392</ele>
        <time>2015-01-18T12:35:17Z</time>
      </trkpt>
      <trkpt lat="50.03667" lon="5.29802">
        <ele>392</ele>
        <time>2015-01-18T12:35:22Z</time>
      </trkpt>
      <trkpt lat="50.03662" lon="5.29797">
        <ele>392</ele>
        <time>2015-01-18T12:35:28Z</time>
      </trkpt>
      <trkpt lat="50.03659" lon="5.29791">
        <ele>392</ele>
        <time>2015-01-18T12:35:34Z</time>
      </trkpt>
      <trkpt lat="50.03655" lon="5.29787">
        <ele>392</ele>
        <time>2015-01-18T12:35:40Z</time>
      </trkpt>
      <trkpt lat="50.03651" lon="5.29781">
        <ele>393</ele>
        <time>2015-01-18T12:35:46Z</time>
      </trkpt>
      <trkpt lat="50.03646" lon="5.29777">
        <ele>392</ele>
        <time>2015-01-18T12:35:52Z</time>
      </trkpt>
      <trkpt lat="50.03643" lon="5.29771">
        <ele>392</ele>
        <time>2015-01-18T12:35:58Z</time>
      </trkpt>
      <trkpt lat="50.03641" lon="5.29767">
        <ele>392</ele>
        <time>2015-01-18T12:36:03Z</time>
      </trkpt>
      <trkpt lat="50.03635" lon="5.29763">
        <ele>392</ele>
        <time>2015-01-18T12:36:09Z</time>
      </trkpt>
      <trkpt lat="50.03632" lon="5.29762">
        <ele>392</ele>
        <time>2015-01-18T12:36:14Z</time>
      </trkpt>
      <trkpt lat="50.0363" lon="5.29764">
        <ele>392</ele>
        <time>2015-01-18T12:36:19Z</time>
      </trkpt>
      <trkpt lat="50.03628" lon="5.2977">
        <ele>392</ele>
        <time>2015-01-18T12:36:25Z</time>
      </trkpt>
      <trkpt lat="50.03628" lon="5.29777">
        <ele>391</ele>
        <time>2015-01-18T12:36:30Z</time>
      </trkpt>
      <trkpt lat="50.03627" lon="5.29785">
        <ele>391</ele>
        <time>2015-01-18T12:36:36Z</time>
      </trkpt>
      <trkpt lat="50.03628" lon="5.29794">
        <ele>391</ele>
        <time>2015-01-18T12:36:41Z</time>
      </trkpt>
      <trkpt lat="50.03628" lon="5.29802">
        <ele>391</ele>
        <time>2015-01-18T12:36:46Z</time>
      </trkpt>
      <trkpt lat="50.03629" lon="5.29811">
        <ele>390</ele>
        <time>2015-01-18T12:36:52Z</time>
      </trkpt>
      <trkpt lat="50.03629" lon="5.2982">
        <ele>389</ele>
        <time>2015-01-18T12:36:57Z</time>
      </trkpt>
      <trkpt lat="50.0363" lon="5.2983">
        <ele>389</ele>
        <time>2015-01-18T12:37:03Z</time>
      </trkpt>
      <trkpt lat="50.03631" lon="5.29838">
        <ele>389</ele>
        <time>2015-01-18T12:37:08Z</time>
      </trkpt>
      <trkpt lat="50.03632" lon="5.29847">
        <ele>388</ele>
        <time>2015-01-18T12:37:14Z</time>
      </trkpt>
      <trkpt lat="50.03631" lon="5.29855">
        <ele>388</ele>
        <time>2015-01-18T12:37:19Z</time>
      </trkpt>
      <trkpt lat="50.03631" lon="5.29863">
        <ele>388</ele>
        <time>2015-01-18T12:37:24Z</time>
      </trkpt>
      <trkpt lat="50.03632" lon="5.29874">
        <ele>388</ele>
        <time>2015-01-18T12:37:30Z</time>
      </trkpt>
      <trkpt lat="50.03632" lon="5.29883">
        <ele>387</ele>
        <time>2015-01-18T12:37:36Z</time>
      </trkpt>
      <trkpt lat="50.03632" lon="5.29893">
        <ele>387</ele>
        <time>2015-01-18T12:37:42Z</time>
      </trkpt>
      <trkpt lat="50.03633" lon="5.29902">
        <ele>386</ele>
        <time>2015-01-18T12:37:48Z</time>
      </trkpt>
      <trkpt lat="50.03633" lon="5.29903">
        <ele>386</ele>
        <time>2015-01-18T12:37:53Z</time>
      </trkpt>
      <trkpt lat="50.03632" lon="5.29903">
        <ele>386</ele>
        <time>2015-01-18T12:37:59Z</time>
      </trkpt>
      <trkpt lat="50.03632" lon="5.29903">
        <ele>386</ele>
        <time>2015-01-18T12:38:05Z</time>
      </trkpt>
      <trkpt lat="50.03632" lon="5.29902">
        <ele>386</ele>
        <time>2015-01-18T12:38:11Z</time>
      </trkpt>
      <trkpt lat="50.03631" lon="5.29904">
        <ele>386</ele>
        <time>2015-01-18T12:38:17Z</time>
      </trkpt>
      <trkpt lat="50.0363" lon="5.29911">
        <ele>385</ele>
        <time>2015-01-18T12:38:23Z</time>
      </trkpt>
      <trkpt lat="50.03631" lon="5.29911">
        <ele>386</ele>
        <time>2015-01-18T12:38:29Z</time>
      </trkpt>
      <trkpt lat="50.0363" lon="5.29914">
        <ele>386</ele>
        <time>2015-01-18T12:38:35Z</time>
      </trkpt>
      <trkpt lat="50.0363" lon="5.29917">
        <ele>385</ele>
        <time>2015-01-18T12:38:42Z</time>
      </trkpt>
      <trkpt lat="50.0363" lon="5.29922">
        <ele>386</ele>
        <time>2015-01-18T12:38:48Z</time>
      </trkpt>
      <trkpt lat="50.0363" lon="5.29925">
        <ele>386</ele>
        <time>2015-01-18T12:38:54Z</time>
      </trkpt>
      <trkpt lat="50.0363" lon="5.29934">
        <ele>386</ele>
        <time>2015-01-18T12:39:00Z</time>
      </trkpt>
      <trkpt lat="50.03629" lon="5.29943">
        <ele>386</ele>
        <time>2015-01-18T12:39:06Z</time>
      </trkpt>
      <trkpt lat="50.03629" lon="5.2995">
        <ele>385</ele>
        <time>2015-01-18T12:39:11Z</time>
      </trkpt>
      <trkpt lat="50.03629" lon="5.29959">
        <ele>385</ele>
        <time>2015-01-18T12:39:17Z</time>
      </trkpt>
      <trkpt lat="50.03629" lon="5.29965">
        <ele>384</ele>
        <time>2015-01-18T12:39:22Z</time>
      </trkpt>
      <trkpt lat="50.03629" lon="5.29974">
        <ele>384</ele>
        <time>2015-01-18T12:39:28Z</time>
      </trkpt>
      <trkpt lat="50.03629" lon="5.29982">
        <ele>384</ele>
        <time>2015-01-18T12:39:33Z</time>
      </trkpt>
      <trkpt lat="50.03629" lon="5.29985">
        <ele>384</ele>
        <time>2015-01-18T12:39:39Z</time>
      </trkpt>
      <trkpt lat="50.03628" lon="5.29988">
        <ele>383</ele>
        <time>2015-01-18T12:39:45Z</time>
      </trkpt>
      <trkpt lat="50.0363" lon="5.29997">
        <ele>383</ele>
        <time>2015-01-18T12:39:51Z</time>
      </trkpt>
      <trkpt lat="50.03629" lon="5.30005">
        <ele>382</ele>
        <time>2015-01-18T12:39:57Z</time>
      </trkpt>
      <trkpt lat="50.0363" lon="5.30013">
        <ele>382</ele>
        <time>2015-01-18T12:40:03Z</time>
      </trkpt>
      <trkpt lat="50.0363" lon="5.30021">
        <ele>382</ele>
        <time>2015-01-18T12:40:09Z</time>
      </trkpt>
      <trkpt lat="50.0363" lon="5.30031">
        <ele>382</ele>
        <time>2015-01-18T12:40:15Z</time>
      </trkpt>
      <trkpt lat="50.0363" lon="5.30043">
        <ele>381</ele>
        <time>2015-01-18T12:40:21Z</time>
      </trkpt>
      <trkpt lat="50.03628" lon="5.30053">
        <ele>381</ele>
        <time>2015-01-18T12:40:27Z</time>
      </trkpt>
      <trkpt lat="50.03627" lon="5.30064">
        <ele>380</ele>
        <time>2015-01-18T12:40:33Z</time>
      </trkpt>
      <trkpt lat="50.03626" lon="5.30075">
        <ele>381</ele>
        <time>2015-01-18T12:40:39Z</time>
      </trkpt>
      <trkpt lat="50.03626" lon="5.30084">
        <ele>380</ele>
        <time>2015-01-18T12:40:44Z</time>
      </trkpt>
      <trkpt lat="50.03625" lon="5.30094">
        <ele>379</ele>
        <time>2015-01-18T12:40:50Z</time>
      </trkpt>
      <trkpt lat="50.03625" lon="5.30105">
        <ele>379</ele>
        <time>2015-01-18T12:40:56Z</time>
      </trkpt>
      <trkpt lat="50.03625" lon="5.30114">
        <ele>379</ele>
        <time>2015-01-18T12:41:01Z</time>
      </trkpt>
      <trkpt lat="50.03624" lon="5.30123">
        <ele>379</ele>
        <time>2015-01-18T12:41:06Z</time>
      </trkpt>
      <trkpt lat="50.03623" lon="5.30133">
        <ele>379</ele>
        <time>2015-01-18T12:41:12Z</time>
      </trkpt>
      <trkpt lat="50.03623" lon="5.30141">
        <ele>378</ele>
        <time>2015-01-18T12:41:17Z</time>
      </trkpt>
      <trkpt lat="50.03623" lon="5.30152">
        <ele>378</ele>
        <time>2015-01-18T12:41:23Z</time>
      </trkpt>
      <trkpt lat="50.03622" lon="5.3016">
        <ele>378</ele>
        <time>2015-01-18T12:41:28Z</time>
      </trkpt>
      <trkpt lat="50.03621" lon="5.3017">
        <ele>378</ele>
        <time>2015-01-18T12:41:34Z</time>
      </trkpt>
      <trkpt lat="50.0362" lon="5.30181">
        <ele>378</ele>
        <time>2015-01-18T12:41:40Z</time>
      </trkpt>
      <trkpt lat="50.0362" lon="5.3019">
        <ele>378</ele>
        <time>2015-01-18T12:41:45Z</time>
      </trkpt>
      <trkpt lat="50.03619" lon="5.30201">
        <ele>378</ele>
        <time>2015-01-18T12:41:51Z</time>
      </trkpt>
      <trkpt lat="50.03616" lon="5.30209">
        <ele>378</ele>
        <time>2015-01-18T12:41:56Z</time>
      </trkpt>
      <trkpt lat="50.03615" lon="5.3022">
        <ele>378</ele>
        <time>2015-01-18T12:42:02Z</time>
      </trkpt>
      <trkpt lat="50.03613" lon="5.3023">
        <ele>377</ele>
        <time>2015-01-18T12:42:08Z</time>
      </trkpt>
      <trkpt lat="50.03611" lon="5.30239">
        <ele>377</ele>
        <time>2015-01-18T12:42:13Z</time>
      </trkpt>
      <trkpt lat="50.03609" lon="5.30248">
        <ele>379</ele>
        <time>2015-01-18T12:42:19Z</time>
      </trkpt>
      <trkpt lat="50.03607" lon="5.30256">
        <ele>378</ele>
        <time>2015-01-18T12:42:24Z</time>
      </trkpt>
      <trkpt lat="50.03603" lon="5.30267">
        <ele>377</ele>
        <time>2015-01-18T12:42:30Z</time>
      </trkpt>
      <trkpt lat="50.03601" lon="5.30275">
        <ele>378</ele>
        <time>2015-01-18T12:42:36Z</time>
      </trkpt>
      <trkpt lat="50.03598" lon="5.30285">
        <ele>378</ele>
        <time>2015-01-18T12:42:42Z</time>
      </trkpt>
      <trkpt lat="50.03595" lon="5.30294">
        <ele>378</ele>
        <time>2015-01-18T12:42:48Z</time>
      </trkpt>
      <trkpt lat="50.03591" lon="5.30301">
        <ele>379</ele>
        <time>2015-01-18T12:42:53Z</time>
      </trkpt>
      <trkpt lat="50.03587" lon="5.3031">
        <ele>379</ele>
        <time>2015-01-18T12:42:59Z</time>
      </trkpt>
      <trkpt lat="50.03584" lon="5.30317">
        <ele>380</ele>
        <time>2015-01-18T12:43:04Z</time>
      </trkpt>
      <trkpt lat="50.03579" lon="5.30326">
        <ele>379</ele>
        <time>2015-01-18T12:43:10Z</time>
      </trkpt>
      <trkpt lat="50.03575" lon="5.30335">
        <ele>380</ele>
        <time>2015-01-18T12:43:16Z</time>
      </trkpt>
      <trkpt lat="50.03571" lon="5.30342">
        <ele>380</ele>
        <time>2015-01-18T12:43:21Z</time>
      </trkpt>
      <trkpt lat="50.03568" lon="5.3035">
        <ele>381</ele>
        <time>2015-01-18T12:43:27Z</time>
      </trkpt>
      <trkpt lat="50.03566" lon="5.30357">
        <ele>381</ele>
        <time>2015-01-18T12:43:32Z</time>
      </trkpt>
      <trkpt lat="50.03564" lon="5.30366">
        <ele>381</ele>
        <time>2015-01-18T12:43:38Z</time>
      </trkpt>
      <trkpt lat="50.03561" lon="5.30374">
        <ele>381</ele>
        <time>2015-01-18T12:43:44Z</time>
      </trkpt>
      <trkpt lat="50.03557" lon="5.30382">
        <ele>381</ele>
        <time>2015-01-18T12:43:50Z</time>
      </trkpt>
      <trkpt lat="50.03554" lon="5.30386">
        <ele>382</ele>
        <time>2015-01-18T12:43:56Z</time>
      </trkpt>
      <trkpt lat="50.03552" lon="5.30392">
        <ele>382</ele>
        <time>2015-01-18T12:44:01Z</time>
      </trkpt>
      <trkpt lat="50.03548" lon="5.30401">
        <ele>383</ele>
        <time>2015-01-18T12:44:07Z</time>
      </trkpt>
      <trkpt lat="50.03545" lon="5.30409">
        <ele>383</ele>
        <time>2015-01-18T12:44:13Z</time>
      </trkpt>
      <trkpt lat="50.03542" lon="5.30414">
        <ele>384</ele>
        <time>2015-01-18T12:44:18Z</time>
      </trkpt>
      <trkpt lat="50.03539" lon="5.30421">
        <ele>384</ele>
        <time>2015-01-18T12:44:23Z</time>
      </trkpt>
      <trkpt lat="50.03535" lon="5.30429">
        <ele>384</ele>
        <time>2015-01-18T12:44:29Z</time>
      </trkpt>
      <trkpt lat="50.03531" lon="5.30436">
        <ele>384</ele>
        <time>2015-01-18T12:44:35Z</time>
      </trkpt>
      <trkpt lat="50.03531" lon="5.30439">
        <ele>385</ele>
        <time>2015-01-18T12:44:40Z</time>
      </trkpt>
      <trkpt lat="50.03527" lon="5.30445">
        <ele>385</ele>
        <time>2015-01-18T12:44:46Z</time>
      </trkpt>
      <trkpt lat="50.03526" lon="5.30447">
        <ele>385</ele>
        <time>2015-01-18T12:44:51Z</time>
      </trkpt>
      <trkpt lat="50.03526" lon="5.30448">
        <ele>386</ele>
        <time>2015-01-18T12:44:56Z</time>
      </trkpt>
      <trkpt lat="50.03526" lon="5.30447">
        <ele>386</ele>
        <time>2015-01-18T12:45:01Z</time>
      </trkpt>
      <trkpt lat="50.03528" lon="5.30448">
        <ele>385</ele>
        <time>2015-01-18T12:45:06Z</time>
      </trkpt>
      <trkpt lat="50.0353" lon="5.30447">
        <ele>386</ele>
        <time>2015-01-18T12:45:11Z</time>
      </trkpt>
      <trkpt lat="50.03531" lon="5.30442">
        <ele>385</ele>
        <time>2015-01-18T12:45:16Z</time>
      </trkpt>
      <trkpt lat="50.0353" lon="5.30441">
        <ele>385</ele>
        <time>2015-01-18T12:45:23Z</time>
      </trkpt>
      <trkpt lat="50.03529" lon="5.3044">
        <ele>385</ele>
        <time>2015-01-18T12:45:29Z</time>
      </trkpt>
      <trkpt lat="50.03529" lon="5.3044">
        <ele>385</ele>
        <time>2015-01-18T12:45:35Z</time>
      </trkpt>
      <trkpt lat="50.03528" lon="5.30439">
        <ele>385</ele>
        <time>2015-01-18T12:45:40Z</time>
      </trkpt>
      <trkpt lat="50.03528" lon="5.3044">
        <ele>385</ele>
        <time>2015-01-18T12:45:46Z</time>
      </trkpt>
      <trkpt lat="50.03527" lon="5.30442">
        <ele>386</ele>
        <time>2015-01-18T12:45:51Z</time>
      </trkpt>
      <trkpt lat="50.03526" lon="5.30444">
        <ele>386</ele>
        <time>2015-01-18T12:45:56Z</time>
      </trkpt>
      <trkpt lat="50.03525" lon="5.30445">
        <ele>387</ele>
        <time>2015-01-18T12:46:01Z</time>
      </trkpt>
      <trkpt lat="50.03524" lon="5.30445">
        <ele>386</ele>
        <time>2015-01-18T12:46:07Z</time>
      </trkpt>
      <trkpt lat="50.03524" lon="5.30446">
        <ele>385</ele>
        <time>2015-01-18T12:46:13Z</time>
      </trkpt>
      <trkpt lat="50.03524" lon="5.30447">
        <ele>386</ele>
        <time>2015-01-18T12:46:18Z</time>
      </trkpt>
      <trkpt lat="50.03523" lon="5.30447">
        <ele>386</ele>
        <time>2015-01-18T12:46:23Z</time>
      </trkpt>
      <trkpt lat="50.03523" lon="5.30448">
        <ele>385</ele>
        <time>2015-01-18T12:46:28Z</time>
      </trkpt>
      <trkpt lat="50.03524" lon="5.30448">
        <ele>386</ele>
        <time>2015-01-18T12:46:36Z</time>
      </trkpt>
      <trkpt lat="50.03524" lon="5.30448">
        <ele>386</ele>
        <time>2015-01-18T12:46:42Z</time>
      </trkpt>
      <trkpt lat="50.03523" lon="5.30446">
        <ele>386</ele>
        <time>2015-01-18T12:46:47Z</time>
      </trkpt>
      <trkpt lat="50.03524" lon="5.30448">
        <ele>387</ele>
        <time>2015-01-18T12:46:52Z</time>
      </trkpt>
      <trkpt lat="50.03523" lon="5.30456">
        <ele>386</ele>
        <time>2015-01-18T12:46:57Z</time>
      </trkpt>
      <trkpt lat="50.0352" lon="5.30464">
        <ele>386</ele>
        <time>2015-01-18T12:47:03Z</time>
      </trkpt>
      <trkpt lat="50.03518" lon="5.30472">
        <ele>387</ele>
        <time>2015-01-18T12:47:08Z</time>
      </trkpt>
      <trkpt lat="50.03514" lon="5.30479">
        <ele>387</ele>
        <time>2015-01-18T12:47:14Z</time>
      </trkpt>
      <trkpt lat="50.03511" lon="5.30487">
        <ele>387</ele>
        <time>2015-01-18T12:47:19Z</time>
      </trkpt>
      <trkpt lat="50.03508" lon="5.30494">
        <ele>387</ele>
        <time>2015-01-18T12:47:24Z</time>
      </trkpt>
      <trkpt lat="50.03504" lon="5.30502">
        <ele>387</ele>
        <time>2015-01-18T12:47:30Z</time>
      </trkpt>
      <trkpt lat="50.03502" lon="5.30507">
        <ele>388</ele>
        <time>2015-01-18T12:47:35Z</time>
      </trkpt>
      <trkpt lat="50.03497" lon="5.30516">
        <ele>389</ele>
        <time>2015-01-18T12:47:41Z</time>
      </trkpt>
      <trkpt lat="50.03495" lon="5.30522">
        <ele>388</ele>
        <time>2015-01-18T12:47:46Z</time>
      </trkpt>
      <trkpt lat="50.03491" lon="5.3053">
        <ele>389</ele>
        <time>2015-01-18T12:47:52Z</time>
      </trkpt>
      <trkpt lat="50.03488" lon="5.30536">
        <ele>390</ele>
        <time>2015-01-18T12:47:57Z</time>
      </trkpt>
      <trkpt lat="50.03485" lon="5.30543">
        <ele>390</ele>
        <time>2015-01-18T12:48:03Z</time>
      </trkpt>
      <trkpt lat="50.03481" lon="5.30551">
        <ele>391</ele>
        <time>2015-01-18T12:48:09Z</time>
      </trkpt>
      <trkpt lat="50.03479" lon="5.30557">
        <ele>391</ele>
        <time>2015-01-18T12:48:14Z</time>
      </trkpt>
      <trkpt lat="50.03475" lon="5.30563">
        <ele>391</ele>
        <time>2015-01-18T12:48:20Z</time>
      </trkpt>
      <trkpt lat="50.03471" lon="5.30571">
        <ele>390</ele>
        <time>2015-01-18T12:48:26Z</time>
      </trkpt>
      <trkpt lat="50.03467" lon="5.30578">
        <ele>391</ele>
        <time>2015-01-18T12:48:31Z</time>
      </trkpt>
      <trkpt lat="50.03463" lon="5.30584">
        <ele>392</ele>
        <time>2015-01-18T12:48:36Z</time>
      </trkpt>
      <trkpt lat="50.03458" lon="5.30593">
        <ele>392</ele>
        <time>2015-01-18T12:48:42Z</time>
      </trkpt>
      <trkpt lat="50.03455" lon="5.30598">
        <ele>392</ele>
        <time>2015-01-18T12:48:47Z</time>
      </trkpt>
      <trkpt lat="50.03454" lon="5.306">
        <ele>392</ele>
        <time>2015-01-18T12:48:52Z</time>
      </trkpt>
      <trkpt lat="50.03449" lon="5.30607">
        <ele>391</ele>
        <time>2015-01-18T12:48:58Z</time>
      </trkpt>
      <trkpt lat="50.03445" lon="5.30614">
        <ele>390</ele>
        <time>2015-01-18T12:49:03Z</time>
      </trkpt>
      <trkpt lat="50.03442" lon="5.3062">
        <ele>391</ele>
        <time>2015-01-18T12:49:08Z</time>
      </trkpt>
      <trkpt lat="50.03438" lon="5.30626">
        <ele>391</ele>
        <time>2015-01-18T12:49:13Z</time>
      </trkpt>
      <trkpt lat="50.03434" lon="5.30632">
        <ele>391</ele>
        <time>2015-01-18T12:49:19Z</time>
      </trkpt>
      <trkpt lat="50.03431" lon="5.30641">
        <ele>392</ele>
        <time>2015-01-18T12:49:25Z</time>
      </trkpt>
      <trkpt lat="50.03428" lon="5.30648">
        <ele>392</ele>
        <time>2015-01-18T12:49:30Z</time>
      </trkpt>
      <trkpt lat="50.03425" lon="5.30657">
        <ele>392</ele>
        <time>2015-01-18T12:49:36Z</time>
      </trkpt>
      <trkpt lat="50.03423" lon="5.30664">
        <ele>392</ele>
        <time>2015-01-18T12:49:41Z</time>
      </trkpt>
      <trkpt lat="50.03421" lon="5.30671">
        <ele>391</ele>
        <time>2015-01-18T12:49:46Z</time>
      </trkpt>
      <trkpt lat="50.03419" lon="5.30679">
        <ele>391</ele>
        <time>2015-01-18T12:49:52Z</time>
      </trkpt>
      <trkpt lat="50.03418" lon="5.30681">
        <ele>391</ele>
        <time>2015-01-18T12:49:57Z</time>
      </trkpt>
      <trkpt lat="50.03418" lon="5.30681">
        <ele>391</ele>
        <time>2015-01-18T12:50:03Z</time>
      </trkpt>
      <trkpt lat="50.03417" lon="5.3068">
        <ele>391</ele>
        <time>2015-01-18T12:50:08Z</time>
      </trkpt>
      <trkpt lat="50.03417" lon="5.30685">
        <ele>392</ele>
        <time>2015-01-18T12:50:14Z</time>
      </trkpt>
      <trkpt lat="50.03416" lon="5.30686">
        <ele>391</ele>
        <time>2015-01-18T12:50:19Z</time>
      </trkpt>
      <trkpt lat="50.03416" lon="5.30687">
        <ele>391</ele>
        <time>2015-01-18T12:50:24Z</time>
      </trkpt>
      <trkpt lat="50.03416" lon="5.30687">
        <ele>391</ele>
        <time>2015-01-18T12:50:30Z</time>
      </trkpt>
      <trkpt lat="50.03415" lon="5.30687">
        <ele>390</ele>
        <time>2015-01-18T12:50:36Z</time>
      </trkpt>
      <trkpt lat="50.03415" lon="5.30688">
        <ele>391</ele>
        <time>2015-01-18T12:50:41Z</time>
      </trkpt>
      <trkpt lat="50.03415" lon="5.30689">
        <ele>392</ele>
        <time>2015-01-18T12:50:46Z</time>
      </trkpt>
      <trkpt lat="50.03415" lon="5.30689">
        <ele>392</ele>
        <time>2015-01-18T12:50:51Z</time>
      </trkpt>
      <trkpt lat="50.03414" lon="5.3069">
        <ele>392</ele>
        <time>2015-01-18T12:50:57Z</time>
      </trkpt>
      <trkpt lat="50.03413" lon="5.3069">
        <ele>392</ele>
        <time>2015-01-18T12:51:02Z</time>
      </trkpt>
      <trkpt lat="50.03413" lon="5.3069">
        <ele>392</ele>
        <time>2015-01-18T12:51:08Z</time>
      </trkpt>
      <trkpt lat="50.03413" lon="5.3069">
        <ele>392</ele>
        <time>2015-01-18T12:51:13Z</time>
      </trkpt>
      <trkpt lat="50.03413" lon="5.3069">
        <ele>392</ele>
        <time>2015-01-18T12:51:19Z</time>
      </trkpt>
      <trkpt lat="50.03413" lon="5.3069">
        <ele>392</ele>
        <time>2015-01-18T12:51:24Z</time>
      </trkpt>
      <trkpt lat="50.03414" lon="5.30689">
        <ele>391</ele>
        <time>2015-01-18T12:51:30Z</time>
      </trkpt>
      <trkpt lat="50.03414" lon="5.30688">
        <ele>392</ele>
        <time>2015-01-18T12:51:35Z</time>
      </trkpt>
      <trkpt lat="50.03415" lon="5.30688">
        <ele>392</ele>
        <time>2015-01-18T12:51:40Z</time>
      </trkpt>
      <trkpt lat="50.03415" lon="5.30687">
        <ele>392</ele>
        <time>2015-01-18T12:51:46Z</time>
      </trkpt>
      <trkpt lat="50.03416" lon="5.30687">
        <ele>392</ele>
        <time>2015-01-18T12:51:51Z</time>
      </trkpt>
      <trkpt lat="50.03416" lon="5.30689">
        <ele>393</ele>
        <time>2015-01-18T12:51:57Z</time>
      </trkpt>
      <trkpt lat="50.03415" lon="5.30693">
        <ele>391</ele>
        <time>2015-01-18T12:52:03Z</time>
      </trkpt>
      <trkpt lat="50.03415" lon="5.30695">
        <ele>392</ele>
        <time>2015-01-18T12:52:08Z</time>
      </trkpt>
      <trkpt lat="50.03414" lon="5.30699">
        <ele>392</ele>
        <time>2015-01-18T12:52:14Z</time>
      </trkpt>
      <trkpt lat="50.03414" lon="5.30701">
        <ele>392</ele>
        <time>2015-01-18T12:52:19Z</time>
      </trkpt>
      <trkpt lat="50.03414" lon="5.30701">
        <ele>392</ele>
        <time>2015-01-18T12:52:25Z</time>
      </trkpt>
      <trkpt lat="50.03413" lon="5.30701">
        <ele>393</ele>
        <time>2015-01-18T12:52:31Z</time>
      </trkpt>
      <trkpt lat="50.03413" lon="5.30706">
        <ele>392</ele>
        <time>2015-01-18T12:52:37Z</time>
      </trkpt>
      <trkpt lat="50.03413" lon="5.30706">
        <ele>392</ele>
        <time>2015-01-18T12:52:43Z</time>
      </trkpt>
      <trkpt lat="50.03414" lon="5.30707">
        <ele>392</ele>
        <time>2015-01-18T12:52:48Z</time>
      </trkpt>
      <trkpt lat="50.03414" lon="5.30707">
        <ele>392</ele>
        <time>2015-01-18T12:52:54Z</time>
      </trkpt>
      <trkpt lat="50.03414" lon="5.30708">
        <ele>392</ele>
        <time>2015-01-18T12:53:00Z</time>
      </trkpt>
      <trkpt lat="50.03414" lon="5.30708">
        <ele>392</ele>
        <time>2015-01-18T12:53:05Z</time>
      </trkpt>
      <trkpt lat="50.03413" lon="5.30708">
        <ele>392</ele>
        <time>2015-01-18T12:53:11Z</time>
      </trkpt>
      <trkpt lat="50.03414" lon="5.30711">
        <ele>392</ele>
        <time>2015-01-18T12:53:16Z</time>
      </trkpt>
      <trkpt lat="50.03415" lon="5.30718">
        <ele>392</ele>
        <time>2015-01-18T12:53:21Z</time>
      </trkpt>
      <trkpt lat="50.03414" lon="5.30721">
        <ele>392</ele>
        <time>2015-01-18T12:53:26Z</time>
      </trkpt>
      <trkpt lat="50.03415" lon="5.30722">
        <ele>393</ele>
        <time>2015-01-18T12:53:32Z</time>
      </trkpt>
      <trkpt lat="50.03415" lon="5.30723">
        <ele>392</ele>
        <time>2015-01-18T12:53:39Z</time>
      </trkpt>
      <trkpt lat="50.03415" lon="5.30725">
        <ele>393</ele>
        <time>2015-01-18T12:53:45Z</time>
      </trkpt>
      <trkpt lat="50.03415" lon="5.30719">
        <ele>393</ele>
        <time>2015-01-18T12:53:50Z</time>
      </trkpt>
      <trkpt lat="50.03413" lon="5.30709">
        <ele>392</ele>
        <time>2015-01-18T12:53:55Z</time>
      </trkpt>
      <trkpt lat="50.03413" lon="5.30708">
        <ele>392</ele>
        <time>2015-01-18T12:54:00Z</time>
      </trkpt>
      <trkpt lat="50.03413" lon="5.30707">
        <ele>392</ele>
        <time>2015-01-18T12:54:07Z</time>
      </trkpt>
      <trkpt lat="50.03413" lon="5.30708">
        <ele>392</ele>
        <time>2015-01-18T12:54:16Z</time>
      </trkpt>
      <trkpt lat="50.03414" lon="5.30707">
        <ele>392</ele>
        <time>2015-01-18T12:54:22Z</time>
      </trkpt>
      <trkpt lat="50.03414" lon="5.3071">
        <ele>393</ele>
        <time>2015-01-18T12:54:35Z</time>
      </trkpt>
      <trkpt lat="50.03415" lon="5.30711">
        <ele>393</ele>
        <time>2015-01-18T12:54:40Z</time>
      </trkpt>
      <trkpt lat="50.03415" lon="5.30718">
        <ele>393</ele>
        <time>2015-01-18T12:54:46Z</time>
      </trkpt>
      <trkpt lat="50.03415" lon="5.30724">
        <ele>392</ele>
        <time>2015-01-18T12:54:51Z</time>
      </trkpt>
      <trkpt lat="50.03415" lon="5.30725">
        <ele>393</ele>
        <time>2015-01-18T12:54:57Z</time>
      </trkpt>
      <trkpt lat="50.03415" lon="5.30728">
        <ele>393</ele>
        <time>2015-01-18T12:55:02Z</time>
      </trkpt>
      <trkpt lat="50.03416" lon="5.30732">
        <ele>393</ele>
        <time>2015-01-18T12:55:07Z</time>
      </trkpt>
      <trkpt lat="50.03417" lon="5.30737">
        <ele>393</ele>
        <time>2015-01-18T12:55:12Z</time>
      </trkpt>
      <trkpt lat="50.03419" lon="5.30744">
        <ele>394</ele>
        <time>2015-01-18T12:55:17Z</time>
      </trkpt>
      <trkpt lat="50.0342" lon="5.30753">
        <ele>394</ele>
        <time>2015-01-18T12:55:23Z</time>
      </trkpt>
      <trkpt lat="50.03421" lon="5.30761">
        <ele>394</ele>
        <time>2015-01-18T12:55:28Z</time>
      </trkpt>
      <trkpt lat="50.03424" lon="5.30769">
        <ele>394</ele>
        <time>2015-01-18T12:55:33Z</time>
      </trkpt>
      <trkpt lat="50.03427" lon="5.30778">
        <ele>394</ele>
        <time>2015-01-18T12:55:39Z</time>
      </trkpt>
      <trkpt lat="50.03429" lon="5.30785">
        <ele>395</ele>
        <time>2015-01-18T12:55:44Z</time>
      </trkpt>
      <trkpt lat="50.0343" lon="5.30785">
        <ele>395</ele>
        <time>2015-01-18T12:55:50Z</time>
      </trkpt>
      <trkpt lat="50.03431" lon="5.30786">
        <ele>395</ele>
        <time>2015-01-18T12:55:55Z</time>
      </trkpt>
      <trkpt lat="50.03432" lon="5.30787">
        <ele>395</ele>
        <time>2015-01-18T12:56:01Z</time>
      </trkpt>
      <trkpt lat="50.03434" lon="5.30795">
        <ele>395</ele>
        <time>2015-01-18T12:56:07Z</time>
      </trkpt>
      <trkpt lat="50.03436" lon="5.30806">
        <ele>395</ele>
        <time>2015-01-18T12:56:13Z</time>
      </trkpt>
      <trkpt lat="50.03438" lon="5.30815">
        <ele>396</ele>
        <time>2015-01-18T12:56:18Z</time>
      </trkpt>
      <trkpt lat="50.0344" lon="5.30827">
        <ele>396</ele>
        <time>2015-01-18T12:56:24Z</time>
      </trkpt>
      <trkpt lat="50.03439" lon="5.30834">
        <ele>396</ele>
        <time>2015-01-18T12:56:29Z</time>
      </trkpt>
      <trkpt lat="50.03442" lon="5.30841">
        <ele>396</ele>
        <time>2015-01-18T12:56:34Z</time>
      </trkpt>
      <trkpt lat="50.03443" lon="5.30853">
        <ele>395</ele>
        <time>2015-01-18T12:56:40Z</time>
      </trkpt>
      <trkpt lat="50.03445" lon="5.30862">
        <ele>396</ele>
        <time>2015-01-18T12:56:45Z</time>
      </trkpt>
      <trkpt lat="50.03447" lon="5.30874">
        <ele>396</ele>
        <time>2015-01-18T12:56:51Z</time>
      </trkpt>
      <trkpt lat="50.03448" lon="5.30883">
        <ele>396</ele>
        <time>2015-01-18T12:56:56Z</time>
      </trkpt>
      <trkpt lat="50.0345" lon="5.30894">
        <ele>396</ele>
        <time>2015-01-18T12:57:02Z</time>
      </trkpt>
      <trkpt lat="50.03452" lon="5.30903">
        <ele>396</ele>
        <time>2015-01-18T12:57:07Z</time>
      </trkpt>
      <trkpt lat="50.03454" lon="5.30912">
        <ele>397</ele>
        <time>2015-01-18T12:57:12Z</time>
      </trkpt>
      <trkpt lat="50.03456" lon="5.30923">
        <ele>396</ele>
        <time>2015-01-18T12:57:18Z</time>
      </trkpt>
      <trkpt lat="50.03457" lon="5.30931">
        <ele>397</ele>
        <time>2015-01-18T12:57:23Z</time>
      </trkpt>
      <trkpt lat="50.03458" lon="5.30939">
        <ele>396</ele>
        <time>2015-01-18T12:57:28Z</time>
      </trkpt>
      <trkpt lat="50.03459" lon="5.3094">
        <ele>396</ele>
        <time>2015-01-18T12:57:36Z</time>
      </trkpt>
      <trkpt lat="50.03459" lon="5.3094">
        <ele>396</ele>
        <time>2015-01-18T12:57:43Z</time>
      </trkpt>
      <trkpt lat="50.03459" lon="5.30946">
        <ele>396</ele>
        <time>2015-01-18T12:57:49Z</time>
      </trkpt>
      <trkpt lat="50.03459" lon="5.30948">
        <ele>395</ele>
        <time>2015-01-18T12:57:54Z</time>
      </trkpt>
      <trkpt lat="50.03459" lon="5.30959">
        <ele>396</ele>
        <time>2015-01-18T12:58:00Z</time>
      </trkpt>
      <trkpt lat="50.03459" lon="5.30967">
        <ele>395</ele>
        <time>2015-01-18T12:58:05Z</time>
      </trkpt>
      <trkpt lat="50.03458" lon="5.30978">
        <ele>395</ele>
        <time>2015-01-18T12:58:11Z</time>
      </trkpt>
      <trkpt lat="50.03456" lon="5.30986">
        <ele>395</ele>
        <time>2015-01-18T12:58:16Z</time>
      </trkpt>
      <trkpt lat="50.03454" lon="5.30998">
        <ele>395</ele>
        <time>2015-01-18T12:58:22Z</time>
      </trkpt>
      <trkpt lat="50.03453" lon="5.31007">
        <ele>395</ele>
        <time>2015-01-18T12:58:27Z</time>
      </trkpt>
      <trkpt lat="50.0345" lon="5.31017">
        <ele>394</ele>
        <time>2015-01-18T12:58:33Z</time>
      </trkpt>
      <trkpt lat="50.03447" lon="5.31026">
        <ele>393</ele>
        <time>2015-01-18T12:58:38Z</time>
      </trkpt>
      <trkpt lat="50.03443" lon="5.31036">
        <ele>393</ele>
        <time>2015-01-18T12:58:44Z</time>
      </trkpt>
      <trkpt lat="50.0344" lon="5.31043">
        <ele>393</ele>
        <time>2015-01-18T12:58:49Z</time>
      </trkpt>
      <trkpt lat="50.03436" lon="5.31051">
        <ele>392</ele>
        <time>2015-01-18T12:58:55Z</time>
      </trkpt>
      <trkpt lat="50.03432" lon="5.31061">
        <ele>392</ele>
        <time>2015-01-18T12:59:01Z</time>
      </trkpt>
      <trkpt lat="50.03428" lon="5.31068">
        <ele>391</ele>
        <time>2015-01-18T12:59:06Z</time>
      </trkpt>
      <trkpt lat="50.03424" lon="5.31077">
        <ele>391</ele>
        <time>2015-01-18T12:59:12Z</time>
      </trkpt>
      <trkpt lat="50.0342" lon="5.31084">
        <ele>391</ele>
        <time>2015-01-18T12:59:17Z</time>
      </trkpt>
      <trkpt lat="50.03418" lon="5.3109">
        <ele>390</ele>
        <time>2015-01-18T12:59:22Z</time>
      </trkpt>
      <trkpt lat="50.03415" lon="5.31096">
        <ele>389</ele>
        <time>2015-01-18T12:59:27Z</time>
      </trkpt>
      <trkpt lat="50.03412" lon="5.31102">
        <ele>390</ele>
        <time>2015-01-18T12:59:33Z</time>
      </trkpt>
      <trkpt lat="50.03409" lon="5.3111">
        <ele>390</ele>
        <time>2015-01-18T12:59:38Z</time>
      </trkpt>
      <trkpt lat="50.03406" lon="5.31121">
        <ele>389</ele>
        <time>2015-01-18T12:59:44Z</time>
      </trkpt>
      <trkpt lat="50.03403" lon="5.31131">
        <ele>389</ele>
        <time>2015-01-18T12:59:50Z</time>
      </trkpt>
      <trkpt lat="50.03401" lon="5.31141">
        <ele>389</ele>
        <time>2015-01-18T12:59:56Z</time>
      </trkpt>
      <trkpt lat="50.03402" lon="5.3115">
        <ele>389</ele>
        <time>2015-01-18T13:00:01Z</time>
      </trkpt>
      <trkpt lat="50.03401" lon="5.31159">
        <ele>388</ele>
        <time>2015-01-18T13:00:06Z</time>
      </trkpt>
      <trkpt lat="50.03401" lon="5.3117">
        <ele>388</ele>
        <time>2015-01-18T13:00:12Z</time>
      </trkpt>
      <trkpt lat="50.034" lon="5.31178">
        <ele>388</ele>
        <time>2015-01-18T13:00:17Z</time>
      </trkpt>
      <trkpt lat="50.03401" lon="5.31188">
        <ele>387</ele>
        <time>2015-01-18T13:00:23Z</time>
      </trkpt>
      <trkpt lat="50.03401" lon="5.31196">
        <ele>386</ele>
        <time>2015-01-18T13:00:28Z</time>
      </trkpt>
      <trkpt lat="50.03402" lon="5.31207">
        <ele>386</ele>
        <time>2015-01-18T13:00:34Z</time>
      </trkpt>
      <trkpt lat="50.03402" lon="5.31215">
        <ele>386</ele>
        <time>2015-01-18T13:00:39Z</time>
      </trkpt>
      <trkpt lat="50.03402" lon="5.31226">
        <ele>386</ele>
        <time>2015-01-18T13:00:45Z</time>
      </trkpt>
      <trkpt lat="50.03403" lon="5.31237">
        <ele>385</ele>
        <time>2015-01-18T13:00:51Z</time>
      </trkpt>
      <trkpt lat="50.03403" lon="5.31245">
        <ele>385</ele>
        <time>2015-01-18T13:00:56Z</time>
      </trkpt>
      <trkpt lat="50.03403" lon="5.31255">
        <ele>384</ele>
        <time>2015-01-18T13:01:02Z</time>
      </trkpt>
      <trkpt lat="50.03403" lon="5.31263">
        <ele>384</ele>
        <time>2015-01-18T13:01:07Z</time>
      </trkpt>
      <trkpt lat="50.03403" lon="5.31272">
        <ele>384</ele>
        <time>2015-01-18T13:01:12Z</time>
      </trkpt>
      <trkpt lat="50.03403" lon="5.31281">
        <ele>383</ele>
        <time>2015-01-18T13:01:18Z</time>
      </trkpt>
      <trkpt lat="50.03404" lon="5.31288">
        <ele>383</ele>
        <time>2015-01-18T13:01:23Z</time>
      </trkpt>
      <trkpt lat="50.03403" lon="5.31296">
        <ele>382</ele>
        <time>2015-01-18T13:01:28Z</time>
      </trkpt>
      <trkpt lat="50.03404" lon="5.31307">
        <ele>383</ele>
        <time>2015-01-18T13:01:34Z</time>
      </trkpt>
      <trkpt lat="50.03404" lon="5.31316">
        <ele>382</ele>
        <time>2015-01-18T13:01:39Z</time>
      </trkpt>
      <trkpt lat="50.03405" lon="5.31325">
        <ele>382</ele>
        <time>2015-01-18T13:01:44Z</time>
      </trkpt>
      <trkpt lat="50.03406" lon="5.31336">
        <ele>382</ele>
        <time>2015-01-18T13:01:50Z</time>
      </trkpt>
      <trkpt lat="50.03406" lon="5.31344">
        <ele>382</ele>
        <time>2015-01-18T13:01:55Z</time>
      </trkpt>
      <trkpt lat="50.03407" lon="5.31346">
        <ele>382</ele>
        <time>2015-01-18T13:02:00Z</time>
      </trkpt>
      <trkpt lat="50.03406" lon="5.31357">
        <ele>382</ele>
        <time>2015-01-18T13:02:06Z</time>
      </trkpt>
      <trkpt lat="50.03405" lon="5.31368">
        <ele>381</ele>
        <time>2015-01-18T13:02:12Z</time>
      </trkpt>
      <trkpt lat="50.03407" lon="5.31381">
        <ele>380</ele>
        <time>2015-01-18T13:02:18Z</time>
      </trkpt>
      <trkpt lat="50.03408" lon="5.31388">
        <ele>380</ele>
        <time>2015-01-18T13:02:23Z</time>
      </trkpt>
      <trkpt lat="50.03408" lon="5.31397">
        <ele>380</ele>
        <time>2015-01-18T13:02:28Z</time>
      </trkpt>
      <trkpt lat="50.03408" lon="5.31407">
        <ele>380</ele>
        <time>2015-01-18T13:02:34Z</time>
      </trkpt>
      <trkpt lat="50.03406" lon="5.31418">
        <ele>379</ele>
        <time>2015-01-18T13:02:40Z</time>
      </trkpt>
      <trkpt lat="50.03403" lon="5.31426">
        <ele>378</ele>
        <time>2015-01-18T13:02:46Z</time>
      </trkpt>
      <trkpt lat="50.03403" lon="5.31429">
        <ele>377</ele>
        <time>2015-01-18T13:02:51Z</time>
      </trkpt>
      <trkpt lat="50.03401" lon="5.31436">
        <ele>377</ele>
        <time>2015-01-18T13:02:57Z</time>
      </trkpt>
      <trkpt lat="50.03399" lon="5.31444">
        <ele>377</ele>
        <time>2015-01-18T13:03:02Z</time>
      </trkpt>
      <trkpt lat="50.03398" lon="5.31453">
        <ele>375</ele>
        <time>2015-01-18T13:03:08Z</time>
      </trkpt>
      <trkpt lat="50.03398" lon="5.31461">
        <ele>375</ele>
        <time>2015-01-18T13:03:13Z</time>
      </trkpt>
      <trkpt lat="50.03397" lon="5.31467">
        <ele>374</ele>
        <time>2015-01-18T13:03:19Z</time>
      </trkpt>
      <trkpt lat="50.03397" lon="5.31475">
        <ele>374</ele>
        <time>2015-01-18T13:03:25Z</time>
      </trkpt>
      <trkpt lat="50.03396" lon="5.31484">
        <ele>373</ele>
        <time>2015-01-18T13:03:30Z</time>
      </trkpt>
      <trkpt lat="50.03395" lon="5.31495">
        <ele>372</ele>
        <time>2015-01-18T13:03:36Z</time>
      </trkpt>
      <trkpt lat="50.03392" lon="5.31504">
        <ele>372</ele>
        <time>2015-01-18T13:03:41Z</time>
      </trkpt>
      <trkpt lat="50.03387" lon="5.31511">
        <ele>372</ele>
        <time>2015-01-18T13:03:46Z</time>
      </trkpt>
      <trkpt lat="50.03379" lon="5.31519">
        <ele>371</ele>
        <time>2015-01-18T13:03:52Z</time>
      </trkpt>
      <trkpt lat="50.03374" lon="5.31525">
        <ele>371</ele>
        <time>2015-01-18T13:03:57Z</time>
      </trkpt>
      <trkpt lat="50.03369" lon="5.31531">
        <ele>371</ele>
        <time>2015-01-18T13:04:02Z</time>
      </trkpt>
      <trkpt lat="50.03364" lon="5.31536">
        <ele>372</ele>
        <time>2015-01-18T13:04:07Z</time>
      </trkpt>
      <trkpt lat="50.03358" lon="5.31541">
        <ele>372</ele>
        <time>2015-01-18T13:04:13Z</time>
      </trkpt>
      <trkpt lat="50.03352" lon="5.31545">
        <ele>372</ele>
        <time>2015-01-18T13:04:18Z</time>
      </trkpt>
      <trkpt lat="50.03346" lon="5.31547">
        <ele>372</ele>
        <time>2015-01-18T13:04:23Z</time>
      </trkpt>
      <trkpt lat="50.03339" lon="5.31551">
        <ele>372</ele>
        <time>2015-01-18T13:04:29Z</time>
      </trkpt>
      <trkpt lat="50.03333" lon="5.31555">
        <ele>371</ele>
        <time>2015-01-18T13:04:35Z</time>
      </trkpt>
      <trkpt lat="50.03327" lon="5.31558">
        <ele>371</ele>
        <time>2015-01-18T13:04:40Z</time>
      </trkpt>
      <trkpt lat="50.03322" lon="5.31561">
        <ele>371</ele>
        <time>2015-01-18T13:04:45Z</time>
      </trkpt>
      <trkpt lat="50.0332" lon="5.31563">
        <ele>371</ele>
        <time>2015-01-18T13:04:51Z</time>
      </trkpt>
      <trkpt lat="50.0332" lon="5.31562">
        <ele>370</ele>
        <time>2015-01-18T13:04:57Z</time>
      </trkpt>
      <trkpt lat="50.03319" lon="5.31562">
        <ele>371</ele>
        <time>2015-01-18T13:05:03Z</time>
      </trkpt>
      <trkpt lat="50.03314" lon="5.31565">
        <ele>371</ele>
        <time>2015-01-18T13:05:08Z</time>
      </trkpt>
      <trkpt lat="50.0331" lon="5.3157">
        <ele>371</ele>
        <time>2015-01-18T13:05:13Z</time>
      </trkpt>
      <trkpt lat="50.03306" lon="5.31579">
        <ele>370</ele>
        <time>2015-01-18T13:05:18Z</time>
      </trkpt>
      <trkpt lat="50.03305" lon="5.31588">
        <ele>370</ele>
        <time>2015-01-18T13:05:23Z</time>
      </trkpt>
      <trkpt lat="50.03302" lon="5.31598">
        <ele>370</ele>
        <time>2015-01-18T13:05:29Z</time>
      </trkpt>
      <trkpt lat="50.03299" lon="5.31605">
        <ele>369</ele>
        <time>2015-01-18T13:05:34Z</time>
      </trkpt>
      <trkpt lat="50.03297" lon="5.31614">
        <ele>369</ele>
        <time>2015-01-18T13:05:40Z</time>
      </trkpt>
      <trkpt lat="50.03297" lon="5.31622">
        <ele>369</ele>
        <time>2015-01-18T13:05:45Z</time>
      </trkpt>
      <trkpt lat="50.03291" lon="5.31625">
        <ele>369</ele>
        <time>2015-01-18T13:05:51Z</time>
      </trkpt>
      <trkpt lat="50.03284" lon="5.31628">
        <ele>369</ele>
        <time>2015-01-18T13:05:57Z</time>
      </trkpt>
      <trkpt lat="50.03278" lon="5.31631">
        <ele>368</ele>
        <time>2015-01-18T13:06:02Z</time>
      </trkpt>
      <trkpt lat="50.03271" lon="5.31632">
        <ele>367</ele>
        <time>2015-01-18T13:06:07Z</time>
      </trkpt>
      <trkpt lat="50.03263" lon="5.31635">
        <ele>366</ele>
        <time>2015-01-18T13:06:13Z</time>
      </trkpt>
      <trkpt lat="50.03257" lon="5.31638">
        <ele>367</ele>
        <time>2015-01-18T13:06:18Z</time>
      </trkpt>
      <trkpt lat="50.03249" lon="5.31641">
        <ele>367</ele>
        <time>2015-01-18T13:06:24Z</time>
      </trkpt>
      <trkpt lat="50.03244" lon="5.31644">
        <ele>366</ele>
        <time>2015-01-18T13:06:29Z</time>
      </trkpt>
      <trkpt lat="50.03238" lon="5.31649">
        <ele>366</ele>
        <time>2015-01-18T13:06:35Z</time>
      </trkpt>
      <trkpt lat="50.03232" lon="5.31653">
        <ele>364</ele>
        <time>2015-01-18T13:06:41Z</time>
      </trkpt>
      <trkpt lat="50.03227" lon="5.31656">
        <ele>365</ele>
        <time>2015-01-18T13:06:46Z</time>
      </trkpt>
      <trkpt lat="50.03221" lon="5.31659">
        <ele>364</ele>
        <time>2015-01-18T13:06:52Z</time>
      </trkpt>
      <trkpt lat="50.03215" lon="5.3166">
        <ele>363</ele>
        <time>2015-01-18T13:06:57Z</time>
      </trkpt>
      <trkpt lat="50.03209" lon="5.31663">
        <ele>363</ele>
        <time>2015-01-18T13:07:03Z</time>
      </trkpt>
      <trkpt lat="50.03204" lon="5.31667">
        <ele>363</ele>
        <time>2015-01-18T13:07:08Z</time>
      </trkpt>
      <trkpt lat="50.03198" lon="5.31674">
        <ele>363</ele>
        <time>2015-01-18T13:07:14Z</time>
      </trkpt>
      <trkpt lat="50.03195" lon="5.31682">
        <ele>362</ele>
        <time>2015-01-18T13:07:19Z</time>
      </trkpt>
      <trkpt lat="50.03191" lon="5.31691">
        <ele>361</ele>
        <time>2015-01-18T13:07:25Z</time>
      </trkpt>
      <trkpt lat="50.03187" lon="5.31698">
        <ele>361</ele>
        <time>2015-01-18T13:07:30Z</time>
      </trkpt>
      <trkpt lat="50.03187" lon="5.31708">
        <ele>360</ele>
        <time>2015-01-18T13:07:36Z</time>
      </trkpt>
      <trkpt lat="50.03188" lon="5.31719">
        <ele>360</ele>
        <time>2015-01-18T13:07:42Z</time>
      </trkpt>
      <trkpt lat="50.03188" lon="5.31728">
        <ele>359</ele>
        <time>2015-01-18T13:07:47Z</time>
      </trkpt>
      <trkpt lat="50.0319" lon="5.31737">
        <ele>359</ele>
        <time>2015-01-18T13:07:52Z</time>
      </trkpt>
      <trkpt lat="50.03192" lon="5.31746">
        <ele>359</ele>
        <time>2015-01-18T13:07:57Z</time>
      </trkpt>
      <trkpt lat="50.03193" lon="5.31755">
        <ele>359</ele>
        <time>2015-01-18T13:08:02Z</time>
      </trkpt>
      <trkpt lat="50.03194" lon="5.31766">
        <ele>359</ele>
        <time>2015-01-18T13:08:08Z</time>
      </trkpt>
      <trkpt lat="50.03197" lon="5.31774">
        <ele>359</ele>
        <time>2015-01-18T13:08:13Z</time>
      </trkpt>
      <trkpt lat="50.032" lon="5.31783">
        <ele>359</ele>
        <time>2015-01-18T13:08:19Z</time>
      </trkpt>
      <trkpt lat="50.03202" lon="5.31789">
        <ele>359</ele>
        <time>2015-01-18T13:08:24Z</time>
      </trkpt>
      <trkpt lat="50.032" lon="5.31794">
        <ele>359</ele>
        <time>2015-01-18T13:08:29Z</time>
      </trkpt>
      <trkpt lat="50.03199" lon="5.31797">
        <ele>359</ele>
        <time>2015-01-18T13:08:35Z</time>
      </trkpt>
      <trkpt lat="50.03202" lon="5.31806">
        <ele>359</ele>
        <time>2015-01-18T13:08:41Z</time>
      </trkpt>
      <trkpt lat="50.03202" lon="5.31807">
        <ele>359</ele>
        <time>2015-01-18T13:08:48Z</time>
      </trkpt>
      <trkpt lat="50.03205" lon="5.31813">
        <ele>358</ele>
        <time>2015-01-18T13:08:53Z</time>
      </trkpt>
      <trkpt lat="50.03209" lon="5.31823">
        <ele>359</ele>
        <time>2015-01-18T13:08:59Z</time>
      </trkpt>
      <trkpt lat="50.03213" lon="5.31833">
        <ele>360</ele>
        <time>2015-01-18T13:09:05Z</time>
      </trkpt>
      <trkpt lat="50.03217" lon="5.31842">
        <ele>360</ele>
        <time>2015-01-18T13:09:11Z</time>
      </trkpt>
      <trkpt lat="50.03222" lon="5.31848">
        <ele>359</ele>
        <time>2015-01-18T13:09:16Z</time>
      </trkpt>
      <trkpt lat="50.03223" lon="5.31849">
        <ele>359</ele>
        <time>2015-01-18T13:09:23Z</time>
      </trkpt>
      <trkpt lat="50.03223" lon="5.31849">
        <ele>359</ele>
        <time>2015-01-18T13:09:28Z</time>
      </trkpt>
      <trkpt lat="50.03224" lon="5.31849">
        <ele>360</ele>
        <time>2015-01-18T13:09:34Z</time>
      </trkpt>
      <trkpt lat="50.03227" lon="5.31854">
        <ele>359</ele>
        <time>2015-01-18T13:09:40Z</time>
      </trkpt>
      <trkpt lat="50.03228" lon="5.31858">
        <ele>359</ele>
        <time>2015-01-18T13:09:45Z</time>
      </trkpt>
      <trkpt lat="50.03231" lon="5.31868">
        <ele>360</ele>
        <time>2015-01-18T13:09:51Z</time>
      </trkpt>
      <trkpt lat="50.03233" lon="5.31878">
        <ele>360</ele>
        <time>2015-01-18T13:09:57Z</time>
      </trkpt>
      <trkpt lat="50.03236" lon="5.31885">
        <ele>360</ele>
        <time>2015-01-18T13:10:02Z</time>
      </trkpt>
      <trkpt lat="50.03239" lon="5.31895">
        <ele>359</ele>
        <time>2015-01-18T13:10:08Z</time>
      </trkpt>
      <trkpt lat="50.03241" lon="5.31904">
        <ele>360</ele>
        <time>2015-01-18T13:10:13Z</time>
      </trkpt>
      <trkpt lat="50.03242" lon="5.31913">
        <ele>360</ele>
        <time>2015-01-18T13:10:19Z</time>
      </trkpt>
      <trkpt lat="50.03242" lon="5.31924">
        <ele>361</ele>
        <time>2015-01-18T13:10:25Z</time>
      </trkpt>
      <trkpt lat="50.03241" lon="5.31932">
        <ele>362</ele>
        <time>2015-01-18T13:10:31Z</time>
      </trkpt>
      <trkpt lat="50.03243" lon="5.31942">
        <ele>363</ele>
        <time>2015-01-18T13:10:37Z</time>
      </trkpt>
      <trkpt lat="50.03244" lon="5.31951">
        <ele>362</ele>
        <time>2015-01-18T13:10:42Z</time>
      </trkpt>
      <trkpt lat="50.03246" lon="5.31961">
        <ele>362</ele>
        <time>2015-01-18T13:10:48Z</time>
      </trkpt>
      <trkpt lat="50.03247" lon="5.31969">
        <ele>362</ele>
        <time>2015-01-18T13:10:53Z</time>
      </trkpt>
      <trkpt lat="50.0325" lon="5.31979">
        <ele>362</ele>
        <time>2015-01-18T13:10:59Z</time>
      </trkpt>
      <trkpt lat="50.03255" lon="5.31984">
        <ele>363</ele>
        <time>2015-01-18T13:11:04Z</time>
      </trkpt>
      <trkpt lat="50.03258" lon="5.31995">
        <ele>364</ele>
        <time>2015-01-18T13:11:10Z</time>
      </trkpt>
      <trkpt lat="50.03261" lon="5.32006">
        <ele>364</ele>
        <time>2015-01-18T13:11:15Z</time>
      </trkpt>
      <trkpt lat="50.03263" lon="5.32019">
        <ele>364</ele>
        <time>2015-01-18T13:11:21Z</time>
      </trkpt>
      <trkpt lat="50.03261" lon="5.32026">
        <ele>364</ele>
        <time>2015-01-18T13:11:26Z</time>
      </trkpt>
      <trkpt lat="50.03256" lon="5.3203">
        <ele>364</ele>
        <time>2015-01-18T13:11:32Z</time>
      </trkpt>
      <trkpt lat="50.03249" lon="5.32031">
        <ele>363</ele>
        <time>2015-01-18T13:11:37Z</time>
      </trkpt>
      <trkpt lat="50.0324" lon="5.32031">
        <ele>365</ele>
        <time>2015-01-18T13:11:43Z</time>
      </trkpt>
      <trkpt lat="50.03233" lon="5.32028">
        <ele>366</ele>
        <time>2015-01-18T13:11:48Z</time>
      </trkpt>
      <trkpt lat="50.03223" lon="5.32026">
        <ele>366</ele>
        <time>2015-01-18T13:11:54Z</time>
      </trkpt>
      <trkpt lat="50.03217" lon="5.32025">
        <ele>366</ele>
        <time>2015-01-18T13:11:59Z</time>
      </trkpt>
      <trkpt lat="50.0321" lon="5.32025">
        <ele>367</ele>
        <time>2015-01-18T13:12:05Z</time>
      </trkpt>
      <trkpt lat="50.03206" lon="5.32023">
        <ele>367</ele>
        <time>2015-01-18T13:12:10Z</time>
      </trkpt>
      <trkpt lat="50.03203" lon="5.32025">
        <ele>367</ele>
        <time>2015-01-18T13:12:16Z</time>
      </trkpt>
      <trkpt lat="50.03199" lon="5.32026">
        <ele>368</ele>
        <time>2015-01-18T13:12:21Z</time>
      </trkpt>
      <trkpt lat="50.03196" lon="5.32025">
        <ele>368</ele>
        <time>2015-01-18T13:12:27Z</time>
      </trkpt>
      <trkpt lat="50.03194" lon="5.32025">
        <ele>369</ele>
        <time>2015-01-18T13:12:32Z</time>
      </trkpt>
      <trkpt lat="50.03188" lon="5.32029">
        <ele>368</ele>
        <time>2015-01-18T13:12:38Z</time>
      </trkpt>
      <trkpt lat="50.03184" lon="5.32036">
        <ele>369</ele>
        <time>2015-01-18T13:12:43Z</time>
      </trkpt>
      <trkpt lat="50.03184" lon="5.32044">
        <ele>369</ele>
        <time>2015-01-18T13:12:48Z</time>
      </trkpt>
      <trkpt lat="50.03186" lon="5.32055">
        <ele>370</ele>
        <time>2015-01-18T13:12:54Z</time>
      </trkpt>
      <trkpt lat="50.03188" lon="5.32064">
        <ele>371</ele>
        <time>2015-01-18T13:12:59Z</time>
      </trkpt>
      <trkpt lat="50.03188" lon="5.32066">
        <ele>371</ele>
        <time>2015-01-18T13:13:04Z</time>
      </trkpt>
      <trkpt lat="50.03188" lon="5.32067">
        <ele>370</ele>
        <time>2015-01-18T13:13:10Z</time>
      </trkpt>
      <trkpt lat="50.03188" lon="5.32067">
        <ele>370</ele>
        <time>2015-01-18T13:13:15Z</time>
      </trkpt>
      <trkpt lat="50.03188" lon="5.32067">
        <ele>370</ele>
        <time>2015-01-18T13:13:16Z</time>
      </trkpt>
    </trkseg>
  </trk>
</gpx>